<?xml version="1.0" encoding="UTF-8" standalone="no" ?>
<gpx xmlns="http://www.topografix.com/GPX/1/1" xmlns:xsi="http://www.w3.org/2001/XMLSchema-instance" xsi:schemaLocation="http://www.topografix.com/GPX/1/1 http://www.topografix.com/GPX/1/1/gpx.xsd" version="1.1" creator="VisuGPX - https://www.visugpx.com">
  <metadata>
    <name>Mont de Gron</name>
    <desc><![CDATA[départ depuis la mairie de St Martin le Gaillard.
circuit en boucle]]></desc>
  </metadata>
  <trk>
    <name><![CDATA[Piste0001SAINT]]></name>
    <trkseg>
      <trkpt lat="49.97802" lon="1.37">
        <ele>36</ele>
        <time>2011-06-18T12:23:12.000Z</time>
      </trkpt>
      <trkpt lat="49.9781" lon="1.37002">
        <ele>35</ele>
        <time>2011-06-18T12:23:55.000Z</time>
      </trkpt>
      <trkpt lat="49.97805" lon="1.36998">
        <ele>36</ele>
        <time>2011-06-18T12:24:08.000Z</time>
      </trkpt>
      <trkpt lat="49.97805" lon="1.37001">
        <ele>36</ele>
        <time>2011-06-18T12:24:30.000Z</time>
      </trkpt>
      <trkpt lat="49.9781" lon="1.37006">
        <ele>38</ele>
        <time>2011-06-18T12:24:39.000Z</time>
      </trkpt>
      <trkpt lat="49.97816" lon="1.37006">
        <ele>39</ele>
        <time>2011-06-18T12:24:48.000Z</time>
      </trkpt>
      <trkpt lat="49.97825" lon="1.37004">
        <ele>37</ele>
        <time>2011-06-18T12:25:03.000Z</time>
      </trkpt>
      <trkpt lat="49.9783" lon="1.36998">
        <ele>37</ele>
        <time>2011-06-18T12:25:08.000Z</time>
      </trkpt>
      <trkpt lat="49.97859" lon="1.36968">
        <ele>41</ele>
        <time>2011-06-18T12:25:49.000Z</time>
      </trkpt>
      <trkpt lat="49.97863" lon="1.36971">
        <ele>43</ele>
        <time>2011-06-18T12:26:02.000Z</time>
      </trkpt>
      <trkpt lat="49.97863" lon="1.36979">
        <ele>43</ele>
        <time>2011-06-18T12:26:23.000Z</time>
      </trkpt>
      <trkpt lat="49.97867" lon="1.36985">
        <ele>41</ele>
        <time>2011-06-18T12:26:30.000Z</time>
      </trkpt>
      <trkpt lat="49.9787" lon="1.36992">
        <ele>40</ele>
        <time>2011-06-18T12:26:35.000Z</time>
      </trkpt>
      <trkpt lat="49.97873" lon="1.37006">
        <ele>35</ele>
        <time>2011-06-18T12:26:44.000Z</time>
      </trkpt>
      <trkpt lat="49.97875" lon="1.37014">
        <ele>33</ele>
        <time>2011-06-18T12:26:49.000Z</time>
      </trkpt>
      <trkpt lat="49.9788" lon="1.37033">
        <ele>28</ele>
        <time>2011-06-18T12:27:01.000Z</time>
      </trkpt>
      <trkpt lat="49.97884" lon="1.37047">
        <ele>27</ele>
        <time>2011-06-18T12:27:10.000Z</time>
      </trkpt>
      <trkpt lat="49.97891" lon="1.37056">
        <ele>29</ele>
        <time>2011-06-18T12:27:19.000Z</time>
      </trkpt>
      <trkpt lat="49.97898" lon="1.37065">
        <ele>29</ele>
        <time>2011-06-18T12:27:28.000Z</time>
      </trkpt>
      <trkpt lat="49.97909" lon="1.37078">
        <ele>31</ele>
        <time>2011-06-18T12:27:39.000Z</time>
      </trkpt>
      <trkpt lat="49.97916" lon="1.37085">
        <ele>29</ele>
        <time>2011-06-18T12:27:50.000Z</time>
      </trkpt>
      <trkpt lat="49.97926" lon="1.37103">
        <ele>29</ele>
        <time>2011-06-18T12:28:06.000Z</time>
      </trkpt>
      <trkpt lat="49.97925" lon="1.37113">
        <ele>28</ele>
        <time>2011-06-18T12:28:13.000Z</time>
      </trkpt>
      <trkpt lat="49.97925" lon="1.37122">
        <ele>27</ele>
        <time>2011-06-18T12:28:18.000Z</time>
      </trkpt>
      <trkpt lat="49.97923" lon="1.37145">
        <ele>29</ele>
        <time>2011-06-18T12:28:32.000Z</time>
      </trkpt>
      <trkpt lat="49.97923" lon="1.37156">
        <ele>28</ele>
        <time>2011-06-18T12:28:40.000Z</time>
      </trkpt>
      <trkpt lat="49.97923" lon="1.37163">
        <ele>27</ele>
        <time>2011-06-18T12:29:03.000Z</time>
      </trkpt>
      <trkpt lat="49.97921" lon="1.3717">
        <ele>28</ele>
        <time>2011-06-18T12:29:11.000Z</time>
      </trkpt>
      <trkpt lat="49.97917" lon="1.37176">
        <ele>30</ele>
        <time>2011-06-18T12:29:16.000Z</time>
      </trkpt>
      <trkpt lat="49.9791" lon="1.37185">
        <ele>31</ele>
        <time>2011-06-18T12:29:24.000Z</time>
      </trkpt>
      <trkpt lat="49.97909" lon="1.37192">
        <ele>33</ele>
        <time>2011-06-18T12:29:30.000Z</time>
      </trkpt>
      <trkpt lat="49.97912" lon="1.37199">
        <ele>33</ele>
        <time>2011-06-18T12:29:40.000Z</time>
      </trkpt>
      <trkpt lat="49.97917" lon="1.37203">
        <ele>34</ele>
        <time>2011-06-18T12:29:57.000Z</time>
      </trkpt>
      <trkpt lat="49.97935" lon="1.37242">
        <ele>28</ele>
        <time>2011-06-18T12:30:27.000Z</time>
      </trkpt>
      <trkpt lat="49.9794" lon="1.37251">
        <ele>29</ele>
        <time>2011-06-18T12:30:33.000Z</time>
      </trkpt>
      <trkpt lat="49.97952" lon="1.37287">
        <ele>31</ele>
        <time>2011-06-18T12:30:56.000Z</time>
      </trkpt>
      <trkpt lat="49.97954" lon="1.37294">
        <ele>31</ele>
        <time>2011-06-18T12:31:00.000Z</time>
      </trkpt>
      <trkpt lat="49.97958" lon="1.37309">
        <ele>32</ele>
        <time>2011-06-18T12:31:08.000Z</time>
      </trkpt>
      <trkpt lat="49.97964" lon="1.37332">
        <ele>32</ele>
        <time>2011-06-18T12:31:21.000Z</time>
      </trkpt>
      <trkpt lat="49.97972" lon="1.37362">
        <ele>30</ele>
        <time>2011-06-18T12:31:39.000Z</time>
      </trkpt>
      <trkpt lat="49.97976" lon="1.37378">
        <ele>29</ele>
        <time>2011-06-18T12:31:48.000Z</time>
      </trkpt>
      <trkpt lat="49.97974" lon="1.37416">
        <ele>30</ele>
        <time>2011-06-18T12:32:10.000Z</time>
      </trkpt>
      <trkpt lat="49.97973" lon="1.3745">
        <ele>31</ele>
        <time>2011-06-18T12:32:28.000Z</time>
      </trkpt>
      <trkpt lat="49.97977" lon="1.37475">
        <ele>30</ele>
        <time>2011-06-18T12:32:42.000Z</time>
      </trkpt>
      <trkpt lat="49.9799" lon="1.37524">
        <ele>28</ele>
        <time>2011-06-18T12:33:11.000Z</time>
      </trkpt>
      <trkpt lat="49.97993" lon="1.37536">
        <ele>31</ele>
        <time>2011-06-18T12:33:19.000Z</time>
      </trkpt>
      <trkpt lat="49.97995" lon="1.37548">
        <ele>33</ele>
        <time>2011-06-18T12:33:28.000Z</time>
      </trkpt>
      <trkpt lat="49.97997" lon="1.37575">
        <ele>35</ele>
        <time>2011-06-18T12:33:44.000Z</time>
      </trkpt>
      <trkpt lat="49.97996" lon="1.37593">
        <ele>37</ele>
        <time>2011-06-18T12:33:54.000Z</time>
      </trkpt>
      <trkpt lat="49.97998" lon="1.37599">
        <ele>36</ele>
        <time>2011-06-18T12:34:01.000Z</time>
      </trkpt>
      <trkpt lat="49.98014" lon="1.37596">
        <ele>38</ele>
        <time>2011-06-18T12:34:14.000Z</time>
      </trkpt>
      <trkpt lat="49.98026" lon="1.37586">
        <ele>42</ele>
        <time>2011-06-18T12:34:27.000Z</time>
      </trkpt>
      <trkpt lat="49.98034" lon="1.37584">
        <ele>43</ele>
        <time>2011-06-18T12:34:34.000Z</time>
      </trkpt>
      <trkpt lat="49.98041" lon="1.37581">
        <ele>44</ele>
        <time>2011-06-18T12:34:43.000Z</time>
      </trkpt>
      <trkpt lat="49.98048" lon="1.3758">
        <ele>42</ele>
        <time>2011-06-18T12:34:53.000Z</time>
      </trkpt>
      <trkpt lat="49.98066" lon="1.37589">
        <ele>40</ele>
        <time>2011-06-18T12:35:12.000Z</time>
      </trkpt>
      <trkpt lat="49.98076" lon="1.37602">
        <ele>42</ele>
        <time>2011-06-18T12:35:27.000Z</time>
      </trkpt>
      <trkpt lat="49.98086" lon="1.37617">
        <ele>44</ele>
        <time>2011-06-18T12:35:42.000Z</time>
      </trkpt>
      <trkpt lat="49.98091" lon="1.37623">
        <ele>45</ele>
        <time>2011-06-18T12:35:47.000Z</time>
      </trkpt>
      <trkpt lat="49.98101" lon="1.3763">
        <ele>48</ele>
        <time>2011-06-18T12:35:59.000Z</time>
      </trkpt>
      <trkpt lat="49.98116" lon="1.37644">
        <ele>51</ele>
        <time>2011-06-18T12:36:13.000Z</time>
      </trkpt>
      <trkpt lat="49.98128" lon="1.37648">
        <ele>52</ele>
        <time>2011-06-18T12:36:29.000Z</time>
      </trkpt>
      <trkpt lat="49.98137" lon="1.37649">
        <ele>53</ele>
        <time>2011-06-18T12:36:41.000Z</time>
      </trkpt>
      <trkpt lat="49.98146" lon="1.37645">
        <ele>58</ele>
        <time>2011-06-18T12:36:50.000Z</time>
      </trkpt>
      <trkpt lat="49.98166" lon="1.37638">
        <ele>63</ele>
        <time>2011-06-18T12:37:09.000Z</time>
      </trkpt>
      <trkpt lat="49.98175" lon="1.37637">
        <ele>62</ele>
        <time>2011-06-18T12:37:20.000Z</time>
      </trkpt>
      <trkpt lat="49.98182" lon="1.37636">
        <ele>62</ele>
        <time>2011-06-18T12:37:33.000Z</time>
      </trkpt>
      <trkpt lat="49.98191" lon="1.37635">
        <ele>62</ele>
        <time>2011-06-18T12:37:43.000Z</time>
      </trkpt>
      <trkpt lat="49.98198" lon="1.37637">
        <ele>60</ele>
        <time>2011-06-18T12:37:54.000Z</time>
      </trkpt>
      <trkpt lat="49.98241" lon="1.37663">
        <ele>69</ele>
        <time>2011-06-18T12:39:36.000Z</time>
      </trkpt>
      <trkpt lat="49.98242" lon="1.37663">
        <ele>69</ele>
        <time>2011-06-18T12:39:37.000Z</time>
      </trkpt>
      <trkpt lat="49.98249" lon="1.37667">
        <ele>71</ele>
        <time>2011-06-18T12:39:44.000Z</time>
      </trkpt>
      <trkpt lat="49.98257" lon="1.37673">
        <ele>71</ele>
        <time>2011-06-18T12:39:52.000Z</time>
      </trkpt>
      <trkpt lat="49.98265" lon="1.37675">
        <ele>71</ele>
        <time>2011-06-18T12:40:01.000Z</time>
      </trkpt>
      <trkpt lat="49.98309" lon="1.37659">
        <ele>75</ele>
        <time>2011-06-18T12:40:44.000Z</time>
      </trkpt>
      <trkpt lat="49.9831" lon="1.37659">
        <ele>76</ele>
        <time>2011-06-18T12:40:45.000Z</time>
      </trkpt>
      <trkpt lat="49.98317" lon="1.37654">
        <ele>78</ele>
        <time>2011-06-18T12:41:03.000Z</time>
      </trkpt>
      <trkpt lat="49.98361" lon="1.37635">
        <ele>81</ele>
        <time>2011-06-18T12:41:49.000Z</time>
      </trkpt>
      <trkpt lat="49.98362" lon="1.37635">
        <ele>81</ele>
        <time>2011-06-18T12:41:50.000Z</time>
      </trkpt>
      <trkpt lat="49.9837" lon="1.37629">
        <ele>85</ele>
        <time>2011-06-18T12:41:59.000Z</time>
      </trkpt>
      <trkpt lat="49.98388" lon="1.37619">
        <ele>88</ele>
        <time>2011-06-18T12:42:20.000Z</time>
      </trkpt>
      <trkpt lat="49.98431" lon="1.37599">
        <ele>93</ele>
        <time>2011-06-18T12:43:16.000Z</time>
      </trkpt>
      <trkpt lat="49.98432" lon="1.37599">
        <ele>93</ele>
        <time>2011-06-18T12:43:17.000Z</time>
      </trkpt>
      <trkpt lat="49.9844" lon="1.37595">
        <ele>94</ele>
        <time>2011-06-18T12:43:28.000Z</time>
      </trkpt>
      <trkpt lat="49.98462" lon="1.3759">
        <ele>99</ele>
        <time>2011-06-18T12:44:10.000Z</time>
      </trkpt>
      <trkpt lat="49.98476" lon="1.37591">
        <ele>101</ele>
        <time>2011-06-18T12:44:28.000Z</time>
      </trkpt>
      <trkpt lat="49.98481" lon="1.37597">
        <ele>104</ele>
        <time>2011-06-18T12:44:52.000Z</time>
      </trkpt>
      <trkpt lat="49.98495" lon="1.37612">
        <ele>104</ele>
        <time>2011-06-18T12:45:11.000Z</time>
      </trkpt>
      <trkpt lat="49.985" lon="1.37619">
        <ele>104</ele>
        <time>2011-06-18T12:45:17.000Z</time>
      </trkpt>
      <trkpt lat="49.9853" lon="1.37659">
        <ele>108</ele>
        <time>2011-06-18T12:45:56.000Z</time>
      </trkpt>
      <trkpt lat="49.98534" lon="1.37664">
        <ele>105</ele>
        <time>2011-06-18T12:46:01.000Z</time>
      </trkpt>
      <trkpt lat="49.98539" lon="1.37673">
        <ele>101</ele>
        <time>2011-06-18T12:46:07.000Z</time>
      </trkpt>
      <trkpt lat="49.98543" lon="1.37685">
        <ele>100</ele>
        <time>2011-06-18T12:46:14.000Z</time>
      </trkpt>
      <trkpt lat="49.98546" lon="1.37692">
        <ele>100</ele>
        <time>2011-06-18T12:46:19.000Z</time>
      </trkpt>
      <trkpt lat="49.98547" lon="1.37699">
        <ele>99</ele>
        <time>2011-06-18T12:46:23.000Z</time>
      </trkpt>
      <trkpt lat="49.98552" lon="1.37729">
        <ele>102</ele>
        <time>2011-06-18T12:46:40.000Z</time>
      </trkpt>
      <trkpt lat="49.98557" lon="1.37755">
        <ele>111</ele>
        <time>2011-06-18T12:46:52.000Z</time>
      </trkpt>
      <trkpt lat="49.98563" lon="1.37769">
        <ele>114</ele>
        <time>2011-06-18T12:47:02.000Z</time>
      </trkpt>
      <trkpt lat="49.98574" lon="1.37778">
        <ele>112</ele>
        <time>2011-06-18T12:47:14.000Z</time>
      </trkpt>
      <trkpt lat="49.98584" lon="1.37782">
        <ele>111</ele>
        <time>2011-06-18T12:47:24.000Z</time>
      </trkpt>
      <trkpt lat="49.9861" lon="1.37795">
        <ele>108</ele>
        <time>2011-06-18T12:47:49.000Z</time>
      </trkpt>
      <trkpt lat="49.98637" lon="1.37803">
        <ele>109</ele>
        <time>2011-06-18T12:48:11.000Z</time>
      </trkpt>
      <trkpt lat="49.98681" lon="1.37817">
        <ele>109</ele>
        <time>2011-06-18T12:48:49.000Z</time>
      </trkpt>
      <trkpt lat="49.98682" lon="1.37817">
        <ele>109</ele>
        <time>2011-06-18T12:48:50.000Z</time>
      </trkpt>
      <trkpt lat="49.98701" lon="1.37825">
        <ele>111</ele>
        <time>2011-06-18T12:49:06.000Z</time>
      </trkpt>
      <trkpt lat="49.98721" lon="1.37832">
        <ele>110</ele>
        <time>2011-06-18T12:49:24.000Z</time>
      </trkpt>
      <trkpt lat="49.98756" lon="1.3785">
        <ele>109</ele>
        <time>2011-06-18T12:49:54.000Z</time>
      </trkpt>
      <trkpt lat="49.98787" lon="1.37867">
        <ele>109</ele>
        <time>2011-06-18T12:50:20.000Z</time>
      </trkpt>
      <trkpt lat="49.98793" lon="1.37867">
        <ele>109</ele>
        <time>2011-06-18T12:50:25.000Z</time>
      </trkpt>
      <trkpt lat="49.98802" lon="1.37863">
        <ele>109</ele>
        <time>2011-06-18T12:50:33.000Z</time>
      </trkpt>
      <trkpt lat="49.98811" lon="1.37857">
        <ele>109</ele>
        <time>2011-06-18T12:50:42.000Z</time>
      </trkpt>
      <trkpt lat="49.98826" lon="1.37849">
        <ele>109</ele>
        <time>2011-06-18T12:50:55.000Z</time>
      </trkpt>
      <trkpt lat="49.9883" lon="1.37846">
        <ele>110</ele>
        <time>2011-06-18T12:51:00.000Z</time>
      </trkpt>
      <trkpt lat="49.98833" lon="1.37831">
        <ele>118</ele>
        <time>2011-06-18T12:51:24.000Z</time>
      </trkpt>
      <trkpt lat="49.98837" lon="1.37832">
        <ele>114</ele>
        <time>2011-06-18T12:51:44.000Z</time>
      </trkpt>
      <trkpt lat="49.98833" lon="1.3784">
        <ele>109</ele>
        <time>2011-06-18T12:52:07.000Z</time>
      </trkpt>
      <trkpt lat="49.98838" lon="1.37847">
        <ele>107</ele>
        <time>2011-06-18T12:52:40.000Z</time>
      </trkpt>
      <trkpt lat="49.98848" lon="1.37863">
        <ele>107</ele>
        <time>2011-06-18T12:52:56.000Z</time>
      </trkpt>
      <trkpt lat="49.98854" lon="1.37885">
        <ele>109</ele>
        <time>2011-06-18T12:53:11.000Z</time>
      </trkpt>
      <trkpt lat="49.98861" lon="1.37938">
        <ele>116</ele>
        <time>2011-06-18T12:53:39.000Z</time>
      </trkpt>
      <trkpt lat="49.98865" lon="1.37955">
        <ele>116</ele>
        <time>2011-06-18T12:53:49.000Z</time>
      </trkpt>
      <trkpt lat="49.9887" lon="1.37978">
        <ele>111</ele>
        <time>2011-06-18T12:54:04.000Z</time>
      </trkpt>
      <trkpt lat="49.98874" lon="1.37984">
        <ele>110</ele>
        <time>2011-06-18T12:54:10.000Z</time>
      </trkpt>
      <trkpt lat="49.98878" lon="1.3799">
        <ele>109</ele>
        <time>2011-06-18T12:54:16.000Z</time>
      </trkpt>
      <trkpt lat="49.98889" lon="1.38001">
        <ele>108</ele>
        <time>2011-06-18T12:54:28.000Z</time>
      </trkpt>
      <trkpt lat="49.98889" lon="1.38007">
        <ele>108</ele>
        <time>2011-06-18T12:54:45.000Z</time>
      </trkpt>
      <trkpt lat="49.98895" lon="1.38007">
        <ele>105</ele>
        <time>2011-06-18T12:55:04.000Z</time>
      </trkpt>
      <trkpt lat="49.98902" lon="1.38009">
        <ele>106</ele>
        <time>2011-06-18T12:55:14.000Z</time>
      </trkpt>
      <trkpt lat="49.98908" lon="1.38009">
        <ele>108</ele>
        <time>2011-06-18T12:55:21.000Z</time>
      </trkpt>
      <trkpt lat="49.98913" lon="1.38013">
        <ele>109</ele>
        <time>2011-06-18T12:55:26.000Z</time>
      </trkpt>
      <trkpt lat="49.98919" lon="1.38025">
        <ele>109</ele>
        <time>2011-06-18T12:55:35.000Z</time>
      </trkpt>
      <trkpt lat="49.98936" lon="1.38084">
        <ele>109</ele>
        <time>2011-06-18T12:56:25.000Z</time>
      </trkpt>
      <trkpt lat="49.98941" lon="1.38093">
        <ele>116</ele>
        <time>2011-06-18T12:56:57.000Z</time>
      </trkpt>
      <trkpt lat="49.98953" lon="1.3811">
        <ele>113</ele>
        <time>2011-06-18T12:57:14.000Z</time>
      </trkpt>
      <trkpt lat="49.98958" lon="1.38112">
        <ele>112</ele>
        <time>2011-06-18T12:57:28.000Z</time>
      </trkpt>
      <trkpt lat="49.98964" lon="1.3812">
        <ele>110</ele>
        <time>2011-06-18T12:57:37.000Z</time>
      </trkpt>
      <trkpt lat="49.99" lon="1.38164">
        <ele>110</ele>
        <time>2011-06-18T12:58:19.000Z</time>
      </trkpt>
      <trkpt lat="49.99001" lon="1.38164">
        <ele>110</ele>
        <time>2011-06-18T12:58:20.000Z</time>
      </trkpt>
      <trkpt lat="49.99014" lon="1.38182">
        <ele>113</ele>
        <time>2011-06-18T12:58:37.000Z</time>
      </trkpt>
      <trkpt lat="49.99015" lon="1.3819">
        <ele>113</ele>
        <time>2011-06-18T12:58:43.000Z</time>
      </trkpt>
      <trkpt lat="49.99031" lon="1.38214">
        <ele>117</ele>
        <time>2011-06-18T12:59:00.000Z</time>
      </trkpt>
      <trkpt lat="49.99033" lon="1.38222">
        <ele>115</ele>
        <time>2011-06-18T12:59:07.000Z</time>
      </trkpt>
      <trkpt lat="49.99033" lon="1.38231">
        <ele>115</ele>
        <time>2011-06-18T12:59:14.000Z</time>
      </trkpt>
      <trkpt lat="49.99035" lon="1.38239">
        <ele>114</ele>
        <time>2011-06-18T12:59:20.000Z</time>
      </trkpt>
      <trkpt lat="49.99036" lon="1.38248">
        <ele>113</ele>
        <time>2011-06-18T12:59:26.000Z</time>
      </trkpt>
      <trkpt lat="49.99036" lon="1.3827">
        <ele>103</ele>
        <time>2011-06-18T12:59:41.000Z</time>
      </trkpt>
      <trkpt lat="49.99043" lon="1.38286">
        <ele>105</ele>
        <time>2011-06-18T12:59:49.000Z</time>
      </trkpt>
      <trkpt lat="49.99049" lon="1.38297">
        <ele>108</ele>
        <time>2011-06-18T12:59:55.000Z</time>
      </trkpt>
      <trkpt lat="49.99052" lon="1.38304">
        <ele>110</ele>
        <time>2011-06-18T12:59:59.000Z</time>
      </trkpt>
      <trkpt lat="49.99067" lon="1.38323">
        <ele>120</ele>
        <time>2011-06-18T13:00:12.000Z</time>
      </trkpt>
      <trkpt lat="49.99068" lon="1.38331">
        <ele>116</ele>
        <time>2011-06-18T13:00:18.000Z</time>
      </trkpt>
      <trkpt lat="49.99078" lon="1.38383">
        <ele>111</ele>
        <time>2011-06-18T13:00:49.000Z</time>
      </trkpt>
      <trkpt lat="49.99081" lon="1.38399">
        <ele>110</ele>
        <time>2011-06-18T13:00:58.000Z</time>
      </trkpt>
      <trkpt lat="49.99087" lon="1.3844">
        <ele>111</ele>
        <time>2011-06-18T13:01:18.000Z</time>
      </trkpt>
      <trkpt lat="49.99088" lon="1.38449">
        <ele>111</ele>
        <time>2011-06-18T13:01:23.000Z</time>
      </trkpt>
      <trkpt lat="49.99089" lon="1.38482">
        <ele>110</ele>
        <time>2011-06-18T13:01:42.000Z</time>
      </trkpt>
      <trkpt lat="49.99091" lon="1.38552">
        <ele>110</ele>
        <time>2011-06-18T13:02:21.000Z</time>
      </trkpt>
      <trkpt lat="49.99091" lon="1.38554">
        <ele>110</ele>
        <time>2011-06-18T13:02:22.000Z</time>
      </trkpt>
      <trkpt lat="49.99092" lon="1.38575">
        <ele>112</ele>
        <time>2011-06-18T13:02:38.000Z</time>
      </trkpt>
      <trkpt lat="49.99093" lon="1.38645">
        <ele>108</ele>
        <time>2011-06-18T13:03:19.000Z</time>
      </trkpt>
      <trkpt lat="49.99092" lon="1.38647">
        <ele>108</ele>
        <time>2011-06-18T13:03:20.000Z</time>
      </trkpt>
      <trkpt lat="49.99094" lon="1.38664">
        <ele>108</ele>
        <time>2011-06-18T13:03:32.000Z</time>
      </trkpt>
      <trkpt lat="49.99095" lon="1.38675">
        <ele>109</ele>
        <time>2011-06-18T13:03:40.000Z</time>
      </trkpt>
      <trkpt lat="49.99095" lon="1.38698">
        <ele>111</ele>
        <time>2011-06-18T13:03:54.000Z</time>
      </trkpt>
      <trkpt lat="49.99095" lon="1.38711">
        <ele>111</ele>
        <time>2011-06-18T13:04:01.000Z</time>
      </trkpt>
      <trkpt lat="49.99094" lon="1.38727">
        <ele>110</ele>
        <time>2011-06-18T13:04:10.000Z</time>
      </trkpt>
      <trkpt lat="49.9909" lon="1.38734">
        <ele>110</ele>
        <time>2011-06-18T13:04:16.000Z</time>
      </trkpt>
      <trkpt lat="49.99082" lon="1.38738">
        <ele>110</ele>
        <time>2011-06-18T13:04:26.000Z</time>
      </trkpt>
      <trkpt lat="49.99073" lon="1.3874">
        <ele>111</ele>
        <time>2011-06-18T13:04:35.000Z</time>
      </trkpt>
      <trkpt lat="49.99044" lon="1.38752">
        <ele>111</ele>
        <time>2011-06-18T13:05:10.000Z</time>
      </trkpt>
      <trkpt lat="49.9904" lon="1.38756">
        <ele>111</ele>
        <time>2011-06-18T13:05:15.000Z</time>
      </trkpt>
      <trkpt lat="49.98997" lon="1.38776">
        <ele>111</ele>
        <time>2011-06-18T13:06:36.000Z</time>
      </trkpt>
      <trkpt lat="49.98996" lon="1.38777">
        <ele>111</ele>
        <time>2011-06-18T13:06:37.000Z</time>
      </trkpt>
      <trkpt lat="49.98953" lon="1.38797">
        <ele>110</ele>
        <time>2011-06-18T13:07:14.000Z</time>
      </trkpt>
      <trkpt lat="49.98952" lon="1.38798">
        <ele>110</ele>
        <time>2011-06-18T13:07:15.000Z</time>
      </trkpt>
      <trkpt lat="49.98907" lon="1.38819">
        <ele>111</ele>
        <time>2011-06-18T13:07:53.000Z</time>
      </trkpt>
      <trkpt lat="49.98906" lon="1.38819">
        <ele>111</ele>
        <time>2011-06-18T13:07:54.000Z</time>
      </trkpt>
      <trkpt lat="49.98862" lon="1.3884">
        <ele>115</ele>
        <time>2011-06-18T13:08:30.000Z</time>
      </trkpt>
      <trkpt lat="49.98861" lon="1.38841">
        <ele>114</ele>
        <time>2011-06-18T13:08:31.000Z</time>
      </trkpt>
      <trkpt lat="49.98818" lon="1.38861">
        <ele>114</ele>
        <time>2011-06-18T13:09:06.000Z</time>
      </trkpt>
      <trkpt lat="49.98816" lon="1.38862">
        <ele>114</ele>
        <time>2011-06-18T13:09:07.000Z</time>
      </trkpt>
      <trkpt lat="49.98773" lon="1.38882">
        <ele>116</ele>
        <time>2011-06-18T13:09:43.000Z</time>
      </trkpt>
      <trkpt lat="49.98772" lon="1.38883">
        <ele>116</ele>
        <time>2011-06-18T13:09:44.000Z</time>
      </trkpt>
      <trkpt lat="49.98765" lon="1.38887">
        <ele>118</ele>
        <time>2011-06-18T13:09:50.000Z</time>
      </trkpt>
      <trkpt lat="49.98722" lon="1.3891">
        <ele>121</ele>
        <time>2011-06-18T13:10:25.000Z</time>
      </trkpt>
      <trkpt lat="49.98721" lon="1.3891">
        <ele>121</ele>
        <time>2011-06-18T13:10:26.000Z</time>
      </trkpt>
      <trkpt lat="49.98678" lon="1.38932">
        <ele>122</ele>
        <time>2011-06-18T13:11:01.000Z</time>
      </trkpt>
      <trkpt lat="49.98677" lon="1.38933">
        <ele>122</ele>
        <time>2011-06-18T13:11:02.000Z</time>
      </trkpt>
      <trkpt lat="49.98633" lon="1.38953">
        <ele>123</ele>
        <time>2011-06-18T13:11:38.000Z</time>
      </trkpt>
      <trkpt lat="49.98632" lon="1.38953">
        <ele>123</ele>
        <time>2011-06-18T13:11:39.000Z</time>
      </trkpt>
      <trkpt lat="49.98629" lon="1.38955">
        <ele>123</ele>
        <time>2011-06-18T13:11:42.000Z</time>
      </trkpt>
      <trkpt lat="49.98586" lon="1.38978">
        <ele>124</ele>
        <time>2011-06-18T13:12:17.000Z</time>
      </trkpt>
      <trkpt lat="49.98584" lon="1.38979">
        <ele>124</ele>
        <time>2011-06-18T13:12:18.000Z</time>
      </trkpt>
      <trkpt lat="49.98541" lon="1.39">
        <ele>125</ele>
        <time>2011-06-18T13:12:57.000Z</time>
      </trkpt>
      <trkpt lat="49.9854" lon="1.39001">
        <ele>125</ele>
        <time>2011-06-18T13:12:58.000Z</time>
      </trkpt>
      <trkpt lat="49.98529" lon="1.39005">
        <ele>124</ele>
        <time>2011-06-18T13:13:08.000Z</time>
      </trkpt>
      <trkpt lat="49.98512" lon="1.39014">
        <ele>122</ele>
        <time>2011-06-18T13:13:24.000Z</time>
      </trkpt>
      <trkpt lat="49.98468" lon="1.39034">
        <ele>119</ele>
        <time>2011-06-18T13:14:02.000Z</time>
      </trkpt>
      <trkpt lat="49.98467" lon="1.39035">
        <ele>119</ele>
        <time>2011-06-18T13:14:03.000Z</time>
      </trkpt>
      <trkpt lat="49.98423" lon="1.39059">
        <ele>115</ele>
        <time>2011-06-18T13:14:43.000Z</time>
      </trkpt>
      <trkpt lat="49.98422" lon="1.39059">
        <ele>115</ele>
        <time>2011-06-18T13:14:44.000Z</time>
      </trkpt>
      <trkpt lat="49.98378" lon="1.39078">
        <ele>117</ele>
        <time>2011-06-18T13:15:22.000Z</time>
      </trkpt>
      <trkpt lat="49.98377" lon="1.39079">
        <ele>117</ele>
        <time>2011-06-18T13:15:23.000Z</time>
      </trkpt>
      <trkpt lat="49.98367" lon="1.39084">
        <ele>116</ele>
        <time>2011-06-18T13:15:32.000Z</time>
      </trkpt>
      <trkpt lat="49.98343" lon="1.39095">
        <ele>114</ele>
        <time>2011-06-18T13:15:53.000Z</time>
      </trkpt>
      <trkpt lat="49.98309" lon="1.3911">
        <ele>110</ele>
        <time>2011-06-18T13:16:26.000Z</time>
      </trkpt>
      <trkpt lat="49.98306" lon="1.39113">
        <ele>110</ele>
        <time>2011-06-18T13:16:49.000Z</time>
      </trkpt>
      <trkpt lat="49.98304" lon="1.3912">
        <ele>110</ele>
        <time>2011-06-18T13:16:57.000Z</time>
      </trkpt>
      <trkpt lat="49.98302" lon="1.39129">
        <ele>112</ele>
        <time>2011-06-18T13:17:03.000Z</time>
      </trkpt>
      <trkpt lat="49.98299" lon="1.39144">
        <ele>111</ele>
        <time>2011-06-18T13:17:50.000Z</time>
      </trkpt>
      <trkpt lat="49.98296" lon="1.39151">
        <ele>105</ele>
        <time>2011-06-18T13:20:30.000Z</time>
      </trkpt>
      <trkpt lat="49.98295" lon="1.39158">
        <ele>106</ele>
        <time>2011-06-18T13:20:37.000Z</time>
      </trkpt>
      <trkpt lat="49.98283" lon="1.39179">
        <ele>112</ele>
        <time>2011-06-18T13:20:56.000Z</time>
      </trkpt>
      <trkpt lat="49.98279" lon="1.39185">
        <ele>116</ele>
        <time>2011-06-18T13:21:03.000Z</time>
      </trkpt>
      <trkpt lat="49.98274" lon="1.39182">
        <ele>115</ele>
        <time>2011-06-18T13:21:09.000Z</time>
      </trkpt>
      <trkpt lat="49.98269" lon="1.39176">
        <ele>111</ele>
        <time>2011-06-18T13:21:18.000Z</time>
      </trkpt>
      <trkpt lat="49.98265" lon="1.3917">
        <ele>109</ele>
        <time>2011-06-18T13:21:24.000Z</time>
      </trkpt>
      <trkpt lat="49.9826" lon="1.39166">
        <ele>109</ele>
        <time>2011-06-18T13:21:30.000Z</time>
      </trkpt>
      <trkpt lat="49.9825" lon="1.39154">
        <ele>113</ele>
        <time>2011-06-18T13:21:48.000Z</time>
      </trkpt>
      <trkpt lat="49.98247" lon="1.39148">
        <ele>112</ele>
        <time>2011-06-18T13:21:53.000Z</time>
      </trkpt>
      <trkpt lat="49.9824" lon="1.3913">
        <ele>109</ele>
        <time>2011-06-18T13:22:11.000Z</time>
      </trkpt>
      <trkpt lat="49.98227" lon="1.39112">
        <ele>114</ele>
        <time>2011-06-18T13:22:25.000Z</time>
      </trkpt>
      <trkpt lat="49.98222" lon="1.39107">
        <ele>115</ele>
        <time>2011-06-18T13:22:30.000Z</time>
      </trkpt>
      <trkpt lat="49.98213" lon="1.39104">
        <ele>115</ele>
        <time>2011-06-18T13:22:42.000Z</time>
      </trkpt>
      <trkpt lat="49.98204" lon="1.3911">
        <ele>118</ele>
        <time>2011-06-18T13:23:07.000Z</time>
      </trkpt>
      <trkpt lat="49.98195" lon="1.39117">
        <ele>116</ele>
        <time>2011-06-18T13:23:16.000Z</time>
      </trkpt>
      <trkpt lat="49.98185" lon="1.39119">
        <ele>117</ele>
        <time>2011-06-18T13:23:25.000Z</time>
      </trkpt>
      <trkpt lat="49.98178" lon="1.3912">
        <ele>119</ele>
        <time>2011-06-18T13:23:32.000Z</time>
      </trkpt>
      <trkpt lat="49.98159" lon="1.39113">
        <ele>115</ele>
        <time>2011-06-18T13:23:52.000Z</time>
      </trkpt>
      <trkpt lat="49.98153" lon="1.39108">
        <ele>113</ele>
        <time>2011-06-18T13:24:00.000Z</time>
      </trkpt>
      <trkpt lat="49.98138" lon="1.39094">
        <ele>115</ele>
        <time>2011-06-18T13:24:18.000Z</time>
      </trkpt>
      <trkpt lat="49.98133" lon="1.39091">
        <ele>118</ele>
        <time>2011-06-18T13:24:23.000Z</time>
      </trkpt>
      <trkpt lat="49.9812" lon="1.39084">
        <ele>116</ele>
        <time>2011-06-18T13:24:38.000Z</time>
      </trkpt>
      <trkpt lat="49.98115" lon="1.3908">
        <ele>112</ele>
        <time>2011-06-18T13:24:45.000Z</time>
      </trkpt>
      <trkpt lat="49.98109" lon="1.39082">
        <ele>106</ele>
        <time>2011-06-18T13:24:52.000Z</time>
      </trkpt>
      <trkpt lat="49.98103" lon="1.39085">
        <ele>102</ele>
        <time>2011-06-18T13:25:01.000Z</time>
      </trkpt>
      <trkpt lat="49.98077" lon="1.39094">
        <ele>114</ele>
        <time>2011-06-18T13:25:25.000Z</time>
      </trkpt>
      <trkpt lat="49.98066" lon="1.39095">
        <ele>112</ele>
        <time>2011-06-18T13:25:39.000Z</time>
      </trkpt>
      <trkpt lat="49.98053" lon="1.39105">
        <ele>115</ele>
        <time>2011-06-18T13:25:53.000Z</time>
      </trkpt>
      <trkpt lat="49.98045" lon="1.39105">
        <ele>117</ele>
        <time>2011-06-18T13:25:59.000Z</time>
      </trkpt>
      <trkpt lat="49.98011" lon="1.39107">
        <ele>128</ele>
        <time>2011-06-18T13:26:27.000Z</time>
      </trkpt>
      <trkpt lat="49.97989" lon="1.39112">
        <ele>122</ele>
        <time>2011-06-18T13:26:49.000Z</time>
      </trkpt>
      <trkpt lat="49.97977" lon="1.39106">
        <ele>123</ele>
        <time>2011-06-18T13:27:02.000Z</time>
      </trkpt>
      <trkpt lat="49.97974" lon="1.39101">
        <ele>123</ele>
        <time>2011-06-18T13:27:07.000Z</time>
      </trkpt>
      <trkpt lat="49.9797" lon="1.39084">
        <ele>125</ele>
        <time>2011-06-18T13:27:19.000Z</time>
      </trkpt>
      <trkpt lat="49.97967" lon="1.39076">
        <ele>120</ele>
        <time>2011-06-18T13:27:25.000Z</time>
      </trkpt>
      <trkpt lat="49.97958" lon="1.39061">
        <ele>113</ele>
        <time>2011-06-18T13:27:38.000Z</time>
      </trkpt>
      <trkpt lat="49.97955" lon="1.3905">
        <ele>110</ele>
        <time>2011-06-18T13:27:47.000Z</time>
      </trkpt>
      <trkpt lat="49.97953" lon="1.39042">
        <ele>113</ele>
        <time>2011-06-18T13:27:52.000Z</time>
      </trkpt>
      <trkpt lat="49.9795" lon="1.3903">
        <ele>120</ele>
        <time>2011-06-18T13:27:59.000Z</time>
      </trkpt>
      <trkpt lat="49.97941" lon="1.39019">
        <ele>121</ele>
        <time>2011-06-18T13:28:13.000Z</time>
      </trkpt>
      <trkpt lat="49.97936" lon="1.39015">
        <ele>116</ele>
        <time>2011-06-18T13:28:20.000Z</time>
      </trkpt>
      <trkpt lat="49.9793" lon="1.39012">
        <ele>115</ele>
        <time>2011-06-18T13:28:26.000Z</time>
      </trkpt>
      <trkpt lat="49.97924" lon="1.39013">
        <ele>116</ele>
        <time>2011-06-18T13:28:32.000Z</time>
      </trkpt>
      <trkpt lat="49.97915" lon="1.39013">
        <ele>117</ele>
        <time>2011-06-18T13:28:40.000Z</time>
      </trkpt>
      <trkpt lat="49.97907" lon="1.39008">
        <ele>120</ele>
        <time>2011-06-18T13:28:48.000Z</time>
      </trkpt>
      <trkpt lat="49.97901" lon="1.39005">
        <ele>120</ele>
        <time>2011-06-18T13:28:55.000Z</time>
      </trkpt>
      <trkpt lat="49.97875" lon="1.38996">
        <ele>117</ele>
        <time>2011-06-18T13:29:24.000Z</time>
      </trkpt>
      <trkpt lat="49.9787" lon="1.38991">
        <ele>122</ele>
        <time>2011-06-18T13:29:30.000Z</time>
      </trkpt>
      <trkpt lat="49.97866" lon="1.38988">
        <ele>125</ele>
        <time>2011-06-18T13:29:43.000Z</time>
      </trkpt>
      <trkpt lat="49.97861" lon="1.38992">
        <ele>121</ele>
        <time>2011-06-18T13:30:01.000Z</time>
      </trkpt>
      <trkpt lat="49.97846" lon="1.39028">
        <ele>120</ele>
        <time>2011-06-18T13:30:26.000Z</time>
      </trkpt>
      <trkpt lat="49.97843" lon="1.39034">
        <ele>116</ele>
        <time>2011-06-18T13:30:30.000Z</time>
      </trkpt>
      <trkpt lat="49.97835" lon="1.39046">
        <ele>108</ele>
        <time>2011-06-18T13:30:47.000Z</time>
      </trkpt>
      <trkpt lat="49.97827" lon="1.39057">
        <ele>114</ele>
        <time>2011-06-18T13:30:53.000Z</time>
      </trkpt>
      <trkpt lat="49.97825" lon="1.39063">
        <ele>116</ele>
        <time>2011-06-18T13:31:01.000Z</time>
      </trkpt>
      <trkpt lat="49.97823" lon="1.39073">
        <ele>116</ele>
        <time>2011-06-18T13:31:06.000Z</time>
      </trkpt>
      <trkpt lat="49.97819" lon="1.39084">
        <ele>119</ele>
        <time>2011-06-18T13:31:14.000Z</time>
      </trkpt>
      <trkpt lat="49.97813" lon="1.39108">
        <ele>128</ele>
        <time>2011-06-18T13:31:30.000Z</time>
      </trkpt>
      <trkpt lat="49.97801" lon="1.39111">
        <ele>122</ele>
        <time>2011-06-18T13:31:46.000Z</time>
      </trkpt>
      <trkpt lat="49.978" lon="1.39115">
        <ele>115</ele>
        <time>2011-06-18T13:32:13.000Z</time>
      </trkpt>
      <trkpt lat="49.978" lon="1.39123">
        <ele>120</ele>
        <time>2011-06-18T13:32:26.000Z</time>
      </trkpt>
      <trkpt lat="49.97794" lon="1.39147">
        <ele>117</ele>
        <time>2011-06-18T13:32:42.000Z</time>
      </trkpt>
      <trkpt lat="49.97791" lon="1.39156">
        <ele>118</ele>
        <time>2011-06-18T13:32:49.000Z</time>
      </trkpt>
      <trkpt lat="49.97789" lon="1.39164">
        <ele>120</ele>
        <time>2011-06-18T13:33:00.000Z</time>
      </trkpt>
      <trkpt lat="49.97767" lon="1.39223">
        <ele>116</ele>
        <time>2011-06-18T13:33:38.000Z</time>
      </trkpt>
      <trkpt lat="49.97755" lon="1.3924">
        <ele>116</ele>
        <time>2011-06-18T13:33:51.000Z</time>
      </trkpt>
      <trkpt lat="49.97748" lon="1.39253">
        <ele>115</ele>
        <time>2011-06-18T13:34:00.000Z</time>
      </trkpt>
      <trkpt lat="49.97744" lon="1.39264">
        <ele>112</ele>
        <time>2011-06-18T13:34:09.000Z</time>
      </trkpt>
      <trkpt lat="49.97721" lon="1.39316">
        <ele>133</ele>
        <time>2011-06-18T13:34:39.000Z</time>
      </trkpt>
      <trkpt lat="49.97711" lon="1.39333">
        <ele>135</ele>
        <time>2011-06-18T13:34:58.000Z</time>
      </trkpt>
      <trkpt lat="49.9771" lon="1.39345">
        <ele>132</ele>
        <time>2011-06-18T13:35:04.000Z</time>
      </trkpt>
      <trkpt lat="49.97708" lon="1.39351">
        <ele>131</ele>
        <time>2011-06-18T13:35:08.000Z</time>
      </trkpt>
      <trkpt lat="49.97695" lon="1.39387">
        <ele>121</ele>
        <time>2011-06-18T13:35:35.000Z</time>
      </trkpt>
      <trkpt lat="49.97674" lon="1.39439">
        <ele>118</ele>
        <time>2011-06-18T13:36:13.000Z</time>
      </trkpt>
      <trkpt lat="49.97667" lon="1.39454">
        <ele>115</ele>
        <time>2011-06-18T13:36:24.000Z</time>
      </trkpt>
      <trkpt lat="49.97662" lon="1.39465">
        <ele>113</ele>
        <time>2011-06-18T13:36:31.000Z</time>
      </trkpt>
      <trkpt lat="49.97649" lon="1.39509">
        <ele>118</ele>
        <time>2011-06-18T13:36:57.000Z</time>
      </trkpt>
      <trkpt lat="49.97643" lon="1.39523">
        <ele>118</ele>
        <time>2011-06-18T13:37:07.000Z</time>
      </trkpt>
      <trkpt lat="49.97632" lon="1.39553">
        <ele>127</ele>
        <time>2011-06-18T13:38:01.000Z</time>
      </trkpt>
      <trkpt lat="49.9763" lon="1.39563">
        <ele>126</ele>
        <time>2011-06-18T13:38:11.000Z</time>
      </trkpt>
      <trkpt lat="49.97605" lon="1.39621">
        <ele>114</ele>
        <time>2011-06-18T13:39:04.000Z</time>
      </trkpt>
      <trkpt lat="49.97604" lon="1.39622">
        <ele>114</ele>
        <time>2011-06-18T13:39:05.000Z</time>
      </trkpt>
      <trkpt lat="49.97604" lon="1.39623">
        <ele>113</ele>
        <time>2011-06-18T13:39:08.000Z</time>
      </trkpt>
      <trkpt lat="49.97594" lon="1.39652">
        <ele>110</ele>
        <time>2011-06-18T13:39:31.000Z</time>
      </trkpt>
      <trkpt lat="49.97589" lon="1.39667">
        <ele>105</ele>
        <time>2011-06-18T13:39:46.000Z</time>
      </trkpt>
      <trkpt lat="49.9758" lon="1.39687">
        <ele>105</ele>
        <time>2011-06-18T13:40:04.000Z</time>
      </trkpt>
      <trkpt lat="49.97572" lon="1.39708">
        <ele>103</ele>
        <time>2011-06-18T13:40:23.000Z</time>
      </trkpt>
      <trkpt lat="49.97568" lon="1.39717">
        <ele>103</ele>
        <time>2011-06-18T13:40:31.000Z</time>
      </trkpt>
      <trkpt lat="49.97556" lon="1.39746">
        <ele>98</ele>
        <time>2011-06-18T13:41:03.000Z</time>
      </trkpt>
      <trkpt lat="49.97551" lon="1.39757">
        <ele>100</ele>
        <time>2011-06-18T13:41:16.000Z</time>
      </trkpt>
      <trkpt lat="49.97546" lon="1.39769">
        <ele>96</ele>
        <time>2011-06-18T13:41:28.000Z</time>
      </trkpt>
      <trkpt lat="49.97543" lon="1.39777">
        <ele>94</ele>
        <time>2011-06-18T13:41:34.000Z</time>
      </trkpt>
      <trkpt lat="49.97538" lon="1.39798">
        <ele>87</ele>
        <time>2011-06-18T13:42:21.000Z</time>
      </trkpt>
      <trkpt lat="49.97532" lon="1.39814">
        <ele>81</ele>
        <time>2011-06-18T13:42:46.000Z</time>
      </trkpt>
      <trkpt lat="49.97523" lon="1.39831">
        <ele>73</ele>
        <time>2011-06-18T13:42:58.000Z</time>
      </trkpt>
      <trkpt lat="49.97515" lon="1.3985">
        <ele>70</ele>
        <time>2011-06-18T13:43:13.000Z</time>
      </trkpt>
      <trkpt lat="49.97512" lon="1.39864">
        <ele>71</ele>
        <time>2011-06-18T13:43:27.000Z</time>
      </trkpt>
      <trkpt lat="49.97507" lon="1.39875">
        <ele>70</ele>
        <time>2011-06-18T13:43:36.000Z</time>
      </trkpt>
      <trkpt lat="49.97499" lon="1.39899">
        <ele>71</ele>
        <time>2011-06-18T13:43:59.000Z</time>
      </trkpt>
      <trkpt lat="49.97496" lon="1.39906">
        <ele>70</ele>
        <time>2011-06-18T13:44:02.000Z</time>
      </trkpt>
      <trkpt lat="49.9749" lon="1.3992">
        <ele>71</ele>
        <time>2011-06-18T13:44:17.000Z</time>
      </trkpt>
      <trkpt lat="49.97486" lon="1.39929">
        <ele>69</ele>
        <time>2011-06-18T13:44:25.000Z</time>
      </trkpt>
      <trkpt lat="49.97471" lon="1.39959">
        <ele>75</ele>
        <time>2011-06-18T13:44:54.000Z</time>
      </trkpt>
      <trkpt lat="49.97467" lon="1.39969">
        <ele>80</ele>
        <time>2011-06-18T13:45:02.000Z</time>
      </trkpt>
      <trkpt lat="49.97453" lon="1.40005">
        <ele>81</ele>
        <time>2011-06-18T13:45:43.000Z</time>
      </trkpt>
      <trkpt lat="49.9745" lon="1.40013">
        <ele>87</ele>
        <time>2011-06-18T13:45:57.000Z</time>
      </trkpt>
      <trkpt lat="49.97444" lon="1.40026">
        <ele>86</ele>
        <time>2011-06-18T13:46:06.000Z</time>
      </trkpt>
      <trkpt lat="49.97433" lon="1.40051">
        <ele>87</ele>
        <time>2011-06-18T13:46:32.000Z</time>
      </trkpt>
      <trkpt lat="49.97408" lon="1.40109">
        <ele>96</ele>
        <time>2011-06-18T13:47:25.000Z</time>
      </trkpt>
      <trkpt lat="49.97408" lon="1.4011">
        <ele>96</ele>
        <time>2011-06-18T13:47:26.000Z</time>
      </trkpt>
      <trkpt lat="49.974" lon="1.40124">
        <ele>99</ele>
        <time>2011-06-18T13:47:40.000Z</time>
      </trkpt>
      <trkpt lat="49.97397" lon="1.40135">
        <ele>103</ele>
        <time>2011-06-18T13:47:51.000Z</time>
      </trkpt>
      <trkpt lat="49.97374" lon="1.4019">
        <ele>104</ele>
        <time>2011-06-18T13:48:44.000Z</time>
      </trkpt>
      <trkpt lat="49.97359" lon="1.40233">
        <ele>110</ele>
        <time>2011-06-18T13:49:19.000Z</time>
      </trkpt>
      <trkpt lat="49.97338" lon="1.40288">
        <ele>113</ele>
        <time>2011-06-18T13:50:03.000Z</time>
      </trkpt>
      <trkpt lat="49.9733" lon="1.40305">
        <ele>115</ele>
        <time>2011-06-18T13:50:18.000Z</time>
      </trkpt>
      <trkpt lat="49.97306" lon="1.40365">
        <ele>120</ele>
        <time>2011-06-18T13:51:03.000Z</time>
      </trkpt>
      <trkpt lat="49.97305" lon="1.40366">
        <ele>120</ele>
        <time>2011-06-18T13:51:04.000Z</time>
      </trkpt>
      <trkpt lat="49.97282" lon="1.40426">
        <ele>122</ele>
        <time>2011-06-18T13:51:53.000Z</time>
      </trkpt>
      <trkpt lat="49.97281" lon="1.40427">
        <ele>122</ele>
        <time>2011-06-18T13:51:54.000Z</time>
      </trkpt>
      <trkpt lat="49.97274" lon="1.40448">
        <ele>120</ele>
        <time>2011-06-18T13:52:10.000Z</time>
      </trkpt>
      <trkpt lat="49.97252" lon="1.40505">
        <ele>119</ele>
        <time>2011-06-18T13:53:17.000Z</time>
      </trkpt>
      <trkpt lat="49.97258" lon="1.40509">
        <ele>127</ele>
        <time>2011-06-18T13:53:58.000Z</time>
      </trkpt>
      <trkpt lat="49.97252" lon="1.40504">
        <ele>136</ele>
        <time>2011-06-18T13:56:03.000Z</time>
      </trkpt>
      <trkpt lat="49.97247" lon="1.40508">
        <ele>137</ele>
        <time>2011-06-18T13:56:12.000Z</time>
      </trkpt>
      <trkpt lat="49.97236" lon="1.40542">
        <ele>119</ele>
        <time>2011-06-18T13:56:48.000Z</time>
      </trkpt>
      <trkpt lat="49.97222" lon="1.40578">
        <ele>117</ele>
        <time>2011-06-18T13:57:22.000Z</time>
      </trkpt>
      <trkpt lat="49.97195" lon="1.40637">
        <ele>124</ele>
        <time>2011-06-18T13:57:57.000Z</time>
      </trkpt>
      <trkpt lat="49.97194" lon="1.40639">
        <ele>124</ele>
        <time>2011-06-18T13:57:58.000Z</time>
      </trkpt>
      <trkpt lat="49.97194" lon="1.40641">
        <ele>125</ele>
        <time>2011-06-18T13:57:59.000Z</time>
      </trkpt>
      <trkpt lat="49.97173" lon="1.40692">
        <ele>128</ele>
        <time>2011-06-18T13:58:30.000Z</time>
      </trkpt>
      <trkpt lat="49.97172" lon="1.40706">
        <ele>130</ele>
        <time>2011-06-18T13:58:42.000Z</time>
      </trkpt>
      <trkpt lat="49.97164" lon="1.40726">
        <ele>124</ele>
        <time>2011-06-18T13:58:56.000Z</time>
      </trkpt>
      <trkpt lat="49.9715" lon="1.40755">
        <ele>123</ele>
        <time>2011-06-18T13:59:22.000Z</time>
      </trkpt>
      <trkpt lat="49.97147" lon="1.40765">
        <ele>128</ele>
        <time>2011-06-18T13:59:32.000Z</time>
      </trkpt>
      <trkpt lat="49.97144" lon="1.40772">
        <ele>131</ele>
        <time>2011-06-18T13:59:39.000Z</time>
      </trkpt>
      <trkpt lat="49.97137" lon="1.40787">
        <ele>130</ele>
        <time>2011-06-18T13:59:55.000Z</time>
      </trkpt>
      <trkpt lat="49.97134" lon="1.40796">
        <ele>130</ele>
        <time>2011-06-18T14:00:02.000Z</time>
      </trkpt>
      <trkpt lat="49.97129" lon="1.40801">
        <ele>132</ele>
        <time>2011-06-18T14:00:13.000Z</time>
      </trkpt>
      <trkpt lat="49.97125" lon="1.40795">
        <ele>132</ele>
        <time>2011-06-18T14:00:24.000Z</time>
      </trkpt>
      <trkpt lat="49.97119" lon="1.40785">
        <ele>133</ele>
        <time>2011-06-18T14:00:35.000Z</time>
      </trkpt>
      <trkpt lat="49.9711" lon="1.40776">
        <ele>131</ele>
        <time>2011-06-18T14:00:45.000Z</time>
      </trkpt>
      <trkpt lat="49.97106" lon="1.40771">
        <ele>128</ele>
        <time>2011-06-18T14:00:51.000Z</time>
      </trkpt>
      <trkpt lat="49.97097" lon="1.4076">
        <ele>127</ele>
        <time>2011-06-18T14:01:06.000Z</time>
      </trkpt>
      <trkpt lat="49.97091" lon="1.40752">
        <ele>127</ele>
        <time>2011-06-18T14:01:14.000Z</time>
      </trkpt>
      <trkpt lat="49.97083" lon="1.40746">
        <ele>128</ele>
        <time>2011-06-18T14:01:22.000Z</time>
      </trkpt>
      <trkpt lat="49.97078" lon="1.40743">
        <ele>129</ele>
        <time>2011-06-18T14:01:28.000Z</time>
      </trkpt>
      <trkpt lat="49.97073" lon="1.40739">
        <ele>130</ele>
        <time>2011-06-18T14:01:34.000Z</time>
      </trkpt>
      <trkpt lat="49.97065" lon="1.40731">
        <ele>131</ele>
        <time>2011-06-18T14:01:45.000Z</time>
      </trkpt>
      <trkpt lat="49.97039" lon="1.40699">
        <ele>134</ele>
        <time>2011-06-18T14:02:17.000Z</time>
      </trkpt>
      <trkpt lat="49.97034" lon="1.40695">
        <ele>134</ele>
        <time>2011-06-18T14:02:22.000Z</time>
      </trkpt>
      <trkpt lat="49.97029" lon="1.4069">
        <ele>135</ele>
        <time>2011-06-18T14:02:27.000Z</time>
      </trkpt>
      <trkpt lat="49.97021" lon="1.40683">
        <ele>132</ele>
        <time>2011-06-18T14:02:35.000Z</time>
      </trkpt>
      <trkpt lat="49.97016" lon="1.40679">
        <ele>132</ele>
        <time>2011-06-18T14:02:41.000Z</time>
      </trkpt>
      <trkpt lat="49.97" lon="1.40668">
        <ele>130</ele>
        <time>2011-06-18T14:02:57.000Z</time>
      </trkpt>
      <trkpt lat="49.96973" lon="1.40642">
        <ele>134</ele>
        <time>2011-06-18T14:03:25.000Z</time>
      </trkpt>
      <trkpt lat="49.96965" lon="1.40636">
        <ele>131</ele>
        <time>2011-06-18T14:03:34.000Z</time>
      </trkpt>
      <trkpt lat="49.96956" lon="1.40624">
        <ele>130</ele>
        <time>2011-06-18T14:03:45.000Z</time>
      </trkpt>
      <trkpt lat="49.96944" lon="1.40615">
        <ele>129</ele>
        <time>2011-06-18T14:03:57.000Z</time>
      </trkpt>
      <trkpt lat="49.96921" lon="1.40585">
        <ele>126</ele>
        <time>2011-06-18T14:04:25.000Z</time>
      </trkpt>
      <trkpt lat="49.96914" lon="1.4058">
        <ele>124</ele>
        <time>2011-06-18T14:04:33.000Z</time>
      </trkpt>
      <trkpt lat="49.96911" lon="1.40572">
        <ele>126</ele>
        <time>2011-06-18T14:04:38.000Z</time>
      </trkpt>
      <trkpt lat="49.9691" lon="1.40565">
        <ele>128</ele>
        <time>2011-06-18T14:04:45.000Z</time>
      </trkpt>
      <trkpt lat="49.96908" lon="1.40557">
        <ele>129</ele>
        <time>2011-06-18T14:04:51.000Z</time>
      </trkpt>
      <trkpt lat="49.96906" lon="1.40547">
        <ele>129</ele>
        <time>2011-06-18T14:04:59.000Z</time>
      </trkpt>
      <trkpt lat="49.96904" lon="1.40539">
        <ele>129</ele>
        <time>2011-06-18T14:05:05.000Z</time>
      </trkpt>
      <trkpt lat="49.96892" lon="1.40498">
        <ele>126</ele>
        <time>2011-06-18T14:05:29.000Z</time>
      </trkpt>
      <trkpt lat="49.96888" lon="1.40482">
        <ele>124</ele>
        <time>2011-06-18T14:05:39.000Z</time>
      </trkpt>
      <trkpt lat="49.96886" lon="1.40473">
        <ele>122</ele>
        <time>2011-06-18T14:05:45.000Z</time>
      </trkpt>
      <trkpt lat="49.96882" lon="1.40467">
        <ele>121</ele>
        <time>2011-06-18T14:05:54.000Z</time>
      </trkpt>
      <trkpt lat="49.96878" lon="1.40455">
        <ele>125</ele>
        <time>2011-06-18T14:05:59.000Z</time>
      </trkpt>
      <trkpt lat="49.9687" lon="1.40436">
        <ele>129</ele>
        <time>2011-06-18T14:06:17.000Z</time>
      </trkpt>
      <trkpt lat="49.96867" lon="1.40424">
        <ele>131</ele>
        <time>2011-06-18T14:06:32.000Z</time>
      </trkpt>
      <trkpt lat="49.96864" lon="1.40414">
        <ele>128</ele>
        <time>2011-06-18T14:06:42.000Z</time>
      </trkpt>
      <trkpt lat="49.96856" lon="1.40405">
        <ele>118</ele>
        <time>2011-06-18T14:07:24.000Z</time>
      </trkpt>
      <trkpt lat="49.96844" lon="1.40402">
        <ele>119</ele>
        <time>2011-06-18T14:07:48.000Z</time>
      </trkpt>
      <trkpt lat="49.96838" lon="1.40402">
        <ele>118</ele>
        <time>2011-06-18T14:07:55.000Z</time>
      </trkpt>
      <trkpt lat="49.96833" lon="1.40398">
        <ele>120</ele>
        <time>2011-06-18T14:08:03.000Z</time>
      </trkpt>
      <trkpt lat="49.96818" lon="1.40396">
        <ele>119</ele>
        <time>2011-06-18T14:08:23.000Z</time>
      </trkpt>
      <trkpt lat="49.96809" lon="1.40393">
        <ele>115</ele>
        <time>2011-06-18T14:08:33.000Z</time>
      </trkpt>
      <trkpt lat="49.96766" lon="1.40373">
        <ele>110</ele>
        <time>2011-06-18T14:09:22.000Z</time>
      </trkpt>
      <trkpt lat="49.96765" lon="1.40372">
        <ele>110</ele>
        <time>2011-06-18T14:09:23.000Z</time>
      </trkpt>
      <trkpt lat="49.96731" lon="1.40359">
        <ele>112</ele>
        <time>2011-06-18T14:10:01.000Z</time>
      </trkpt>
      <trkpt lat="49.96721" lon="1.40352">
        <ele>111</ele>
        <time>2011-06-18T14:10:36.000Z</time>
      </trkpt>
      <trkpt lat="49.96717" lon="1.40356">
        <ele>107</ele>
        <time>2011-06-18T14:11:16.000Z</time>
      </trkpt>
      <trkpt lat="49.96698" lon="1.40352">
        <ele>102</ele>
        <time>2011-06-18T14:11:42.000Z</time>
      </trkpt>
      <trkpt lat="49.9669" lon="1.40351">
        <ele>101</ele>
        <time>2011-06-18T14:11:52.000Z</time>
      </trkpt>
      <trkpt lat="49.96672" lon="1.40338">
        <ele>103</ele>
        <time>2011-06-18T14:12:12.000Z</time>
      </trkpt>
      <trkpt lat="49.96664" lon="1.40331">
        <ele>102</ele>
        <time>2011-06-18T14:12:22.000Z</time>
      </trkpt>
      <trkpt lat="49.96644" lon="1.40322">
        <ele>97</ele>
        <time>2011-06-18T14:12:46.000Z</time>
      </trkpt>
      <trkpt lat="49.96638" lon="1.40322">
        <ele>95</ele>
        <time>2011-06-18T14:12:52.000Z</time>
      </trkpt>
      <trkpt lat="49.96626" lon="1.40332">
        <ele>89</ele>
        <time>2011-06-18T14:13:06.000Z</time>
      </trkpt>
      <trkpt lat="49.96616" lon="1.40349">
        <ele>88</ele>
        <time>2011-06-18T14:13:24.000Z</time>
      </trkpt>
      <trkpt lat="49.96613" lon="1.40359">
        <ele>85</ele>
        <time>2011-06-18T14:13:34.000Z</time>
      </trkpt>
      <trkpt lat="49.96608" lon="1.40373">
        <ele>80</ele>
        <time>2011-06-18T14:13:47.000Z</time>
      </trkpt>
      <trkpt lat="49.96603" lon="1.40388">
        <ele>75</ele>
        <time>2011-06-18T14:13:58.000Z</time>
      </trkpt>
      <trkpt lat="49.96597" lon="1.40403">
        <ele>73</ele>
        <time>2011-06-18T14:14:10.000Z</time>
      </trkpt>
      <trkpt lat="49.96588" lon="1.40424">
        <ele>71</ele>
        <time>2011-06-18T14:14:27.000Z</time>
      </trkpt>
      <trkpt lat="49.96583" lon="1.40434">
        <ele>72</ele>
        <time>2011-06-18T14:14:41.000Z</time>
      </trkpt>
      <trkpt lat="49.9658" lon="1.40441">
        <ele>73</ele>
        <time>2011-06-18T14:14:48.000Z</time>
      </trkpt>
      <trkpt lat="49.96574" lon="1.40453">
        <ele>71</ele>
        <time>2011-06-18T14:15:00.000Z</time>
      </trkpt>
      <trkpt lat="49.96559" lon="1.40482">
        <ele>69</ele>
        <time>2011-06-18T14:15:20.000Z</time>
      </trkpt>
      <trkpt lat="49.96552" lon="1.40496">
        <ele>68</ele>
        <time>2011-06-18T14:15:30.000Z</time>
      </trkpt>
      <trkpt lat="49.96547" lon="1.40507">
        <ele>66</ele>
        <time>2011-06-18T14:15:38.000Z</time>
      </trkpt>
      <trkpt lat="49.96539" lon="1.40523">
        <ele>65</ele>
        <time>2011-06-18T14:15:49.000Z</time>
      </trkpt>
      <trkpt lat="49.96535" lon="1.4053">
        <ele>66</ele>
        <time>2011-06-18T14:15:55.000Z</time>
      </trkpt>
      <trkpt lat="49.96527" lon="1.40544">
        <ele>66</ele>
        <time>2011-06-18T14:16:05.000Z</time>
      </trkpt>
      <trkpt lat="49.9652" lon="1.40556">
        <ele>65</ele>
        <time>2011-06-18T14:16:16.000Z</time>
      </trkpt>
      <trkpt lat="49.96502" lon="1.40582">
        <ele>64</ele>
        <time>2011-06-18T14:17:01.000Z</time>
      </trkpt>
      <trkpt lat="49.96461" lon="1.40601">
        <ele>58</ele>
        <time>2011-06-18T14:17:40.000Z</time>
      </trkpt>
      <trkpt lat="49.96431" lon="1.40599">
        <ele>57</ele>
        <time>2011-06-18T14:18:03.000Z</time>
      </trkpt>
      <trkpt lat="49.96392" lon="1.40583">
        <ele>51</ele>
        <time>2011-06-18T14:18:36.000Z</time>
      </trkpt>
      <trkpt lat="49.96353" lon="1.40557">
        <ele>48</ele>
        <time>2011-06-18T14:19:17.000Z</time>
      </trkpt>
      <trkpt lat="49.96349" lon="1.40552">
        <ele>47</ele>
        <time>2011-06-18T14:19:22.000Z</time>
      </trkpt>
      <trkpt lat="49.96319" lon="1.40522">
        <ele>40</ele>
        <time>2011-06-18T14:19:57.000Z</time>
      </trkpt>
      <trkpt lat="49.96314" lon="1.40515">
        <ele>39</ele>
        <time>2011-06-18T14:20:03.000Z</time>
      </trkpt>
      <trkpt lat="49.96311" lon="1.40508">
        <ele>38</ele>
        <time>2011-06-18T14:20:09.000Z</time>
      </trkpt>
      <trkpt lat="49.96308" lon="1.405">
        <ele>38</ele>
        <time>2011-06-18T14:20:15.000Z</time>
      </trkpt>
      <trkpt lat="49.96302" lon="1.40479">
        <ele>35</ele>
        <time>2011-06-18T14:20:28.000Z</time>
      </trkpt>
      <trkpt lat="49.963" lon="1.40456">
        <ele>34</ele>
        <time>2011-06-18T14:20:43.000Z</time>
      </trkpt>
      <trkpt lat="49.96286" lon="1.40425">
        <ele>36</ele>
        <time>2011-06-18T14:21:25.000Z</time>
      </trkpt>
      <trkpt lat="49.96282" lon="1.4042">
        <ele>38</ele>
        <time>2011-06-18T14:21:41.000Z</time>
      </trkpt>
      <trkpt lat="49.96257" lon="1.40373">
        <ele>36</ele>
        <time>2011-06-18T14:22:16.000Z</time>
      </trkpt>
      <trkpt lat="49.96251" lon="1.40362">
        <ele>34</ele>
        <time>2011-06-18T14:22:24.000Z</time>
      </trkpt>
      <trkpt lat="49.9623" lon="1.40331">
        <ele>34</ele>
        <time>2011-06-18T14:22:47.000Z</time>
      </trkpt>
      <trkpt lat="49.96204" lon="1.40293">
        <ele>36</ele>
        <time>2011-06-18T14:23:13.000Z</time>
      </trkpt>
      <trkpt lat="49.96192" lon="1.40274">
        <ele>35</ele>
        <time>2011-06-18T14:23:44.000Z</time>
      </trkpt>
      <trkpt lat="49.96185" lon="1.40266">
        <ele>34</ele>
        <time>2011-06-18T14:23:53.000Z</time>
      </trkpt>
      <trkpt lat="49.96183" lon="1.40267">
        <ele>35</ele>
        <time>2011-06-18T14:24:25.000Z</time>
      </trkpt>
      <trkpt lat="49.96152" lon="1.40215">
        <ele>34</ele>
        <time>2011-06-18T14:25:03.000Z</time>
      </trkpt>
      <trkpt lat="49.96151" lon="1.40213">
        <ele>34</ele>
        <time>2011-06-18T14:25:04.000Z</time>
      </trkpt>
      <trkpt lat="49.96137" lon="1.40187">
        <ele>33</ele>
        <time>2011-06-18T14:25:23.000Z</time>
      </trkpt>
      <trkpt lat="49.96135" lon="1.4018">
        <ele>34</ele>
        <time>2011-06-18T14:25:27.000Z</time>
      </trkpt>
      <trkpt lat="49.96128" lon="1.40171">
        <ele>35</ele>
        <time>2011-06-18T14:25:36.000Z</time>
      </trkpt>
      <trkpt lat="49.96126" lon="1.40163">
        <ele>35</ele>
        <time>2011-06-18T14:25:46.000Z</time>
      </trkpt>
      <trkpt lat="49.96116" lon="1.40139">
        <ele>34</ele>
        <time>2011-06-18T14:26:02.000Z</time>
      </trkpt>
      <trkpt lat="49.96101" lon="1.40106">
        <ele>36</ele>
        <time>2011-06-18T14:26:29.000Z</time>
      </trkpt>
      <trkpt lat="49.9608" lon="1.40071">
        <ele>35</ele>
        <time>2011-06-18T14:26:57.000Z</time>
      </trkpt>
      <trkpt lat="49.96069" lon="1.40058">
        <ele>35</ele>
        <time>2011-06-18T14:27:11.000Z</time>
      </trkpt>
      <trkpt lat="49.96062" lon="1.40052">
        <ele>36</ele>
        <time>2011-06-18T14:27:19.000Z</time>
      </trkpt>
      <trkpt lat="49.96058" lon="1.40048">
        <ele>38</ele>
        <time>2011-06-18T14:27:32.000Z</time>
      </trkpt>
      <trkpt lat="49.96027" lon="1.40021">
        <ele>37</ele>
        <time>2011-06-18T14:28:36.000Z</time>
      </trkpt>
      <trkpt lat="49.96011" lon="1.4">
        <ele>37</ele>
        <time>2011-06-18T14:29:00.000Z</time>
      </trkpt>
      <trkpt lat="49.96008" lon="1.39993">
        <ele>37</ele>
        <time>2011-06-18T14:29:05.000Z</time>
      </trkpt>
      <trkpt lat="49.96004" lon="1.39982">
        <ele>40</ele>
        <time>2011-06-18T14:29:13.000Z</time>
      </trkpt>
      <trkpt lat="49.96" lon="1.39966">
        <ele>39</ele>
        <time>2011-06-18T14:29:43.000Z</time>
      </trkpt>
      <trkpt lat="49.96003" lon="1.39956">
        <ele>34</ele>
        <time>2011-06-18T14:29:58.000Z</time>
      </trkpt>
      <trkpt lat="49.96003" lon="1.39944">
        <ele>33</ele>
        <time>2011-06-18T14:30:30.000Z</time>
      </trkpt>
      <trkpt lat="49.96002" lon="1.39921">
        <ele>37</ele>
        <time>2011-06-18T14:30:44.000Z</time>
      </trkpt>
      <trkpt lat="49.96005" lon="1.39893">
        <ele>46</ele>
        <time>2011-06-18T14:31:01.000Z</time>
      </trkpt>
      <trkpt lat="49.96004" lon="1.39868">
        <ele>49</ele>
        <time>2011-06-18T14:31:15.000Z</time>
      </trkpt>
      <trkpt lat="49.96004" lon="1.39858">
        <ele>49</ele>
        <time>2011-06-18T14:31:21.000Z</time>
      </trkpt>
      <trkpt lat="49.96004" lon="1.39848">
        <ele>49</ele>
        <time>2011-06-18T14:31:27.000Z</time>
      </trkpt>
      <trkpt lat="49.96006" lon="1.39808">
        <ele>46</ele>
        <time>2011-06-18T14:31:54.000Z</time>
      </trkpt>
      <trkpt lat="49.96004" lon="1.39796">
        <ele>46</ele>
        <time>2011-06-18T14:32:03.000Z</time>
      </trkpt>
      <trkpt lat="49.96006" lon="1.39787">
        <ele>45</ele>
        <time>2011-06-18T14:32:08.000Z</time>
      </trkpt>
      <trkpt lat="49.96008" lon="1.39768">
        <ele>45</ele>
        <time>2011-06-18T14:32:17.000Z</time>
      </trkpt>
      <trkpt lat="49.96012" lon="1.39746">
        <ele>46</ele>
        <time>2011-06-18T14:32:29.000Z</time>
      </trkpt>
      <trkpt lat="49.9602" lon="1.39727">
        <ele>40</ele>
        <time>2011-06-18T14:32:41.000Z</time>
      </trkpt>
      <trkpt lat="49.96029" lon="1.39705">
        <ele>41</ele>
        <time>2011-06-18T14:32:55.000Z</time>
      </trkpt>
      <trkpt lat="49.96062" lon="1.39665">
        <ele>47</ele>
        <time>2011-06-18T14:33:29.000Z</time>
      </trkpt>
      <trkpt lat="49.96073" lon="1.39652">
        <ele>48</ele>
        <time>2011-06-18T14:33:42.000Z</time>
      </trkpt>
      <trkpt lat="49.96095" lon="1.39625">
        <ele>50</ele>
        <time>2011-06-18T14:34:04.000Z</time>
      </trkpt>
      <trkpt lat="49.96104" lon="1.39612">
        <ele>49</ele>
        <time>2011-06-18T14:34:15.000Z</time>
      </trkpt>
      <trkpt lat="49.96107" lon="1.39606">
        <ele>49</ele>
        <time>2011-06-18T14:34:19.000Z</time>
      </trkpt>
      <trkpt lat="49.96135" lon="1.39555">
        <ele>45</ele>
        <time>2011-06-18T14:35:05.000Z</time>
      </trkpt>
      <trkpt lat="49.96138" lon="1.39547">
        <ele>43</ele>
        <time>2011-06-18T14:35:11.000Z</time>
      </trkpt>
      <trkpt lat="49.96152" lon="1.39528">
        <ele>42</ele>
        <time>2011-06-18T14:35:30.000Z</time>
      </trkpt>
      <trkpt lat="49.96157" lon="1.39528">
        <ele>42</ele>
        <time>2011-06-18T14:35:40.000Z</time>
      </trkpt>
      <trkpt lat="49.96161" lon="1.39522">
        <ele>43</ele>
        <time>2011-06-18T14:36:20.000Z</time>
      </trkpt>
      <trkpt lat="49.96177" lon="1.39495">
        <ele>41</ele>
        <time>2011-06-18T14:37:08.000Z</time>
      </trkpt>
      <trkpt lat="49.96184" lon="1.39492">
        <ele>38</ele>
        <time>2011-06-18T14:37:23.000Z</time>
      </trkpt>
      <trkpt lat="49.9618" lon="1.39487">
        <ele>36</ele>
        <time>2011-06-18T14:38:52.000Z</time>
      </trkpt>
      <trkpt lat="49.96176" lon="1.39482">
        <ele>36</ele>
        <time>2011-06-18T14:38:58.000Z</time>
      </trkpt>
      <trkpt lat="49.96178" lon="1.39474">
        <ele>37</ele>
        <time>2011-06-18T14:39:04.000Z</time>
      </trkpt>
      <trkpt lat="49.96189" lon="1.39447">
        <ele>41</ele>
        <time>2011-06-18T14:39:24.000Z</time>
      </trkpt>
      <trkpt lat="49.96191" lon="1.39439">
        <ele>47</ele>
        <time>2011-06-18T14:40:08.000Z</time>
      </trkpt>
      <trkpt lat="49.96192" lon="1.3943">
        <ele>46</ele>
        <time>2011-06-18T14:40:14.000Z</time>
      </trkpt>
      <trkpt lat="49.96195" lon="1.39418">
        <ele>42</ele>
        <time>2011-06-18T14:40:26.000Z</time>
      </trkpt>
      <trkpt lat="49.96209" lon="1.3938">
        <ele>46</ele>
        <time>2011-06-18T14:40:54.000Z</time>
      </trkpt>
      <trkpt lat="49.96213" lon="1.39362">
        <ele>44</ele>
        <time>2011-06-18T14:41:05.000Z</time>
      </trkpt>
      <trkpt lat="49.96213" lon="1.39349">
        <ele>43</ele>
        <time>2011-06-18T14:41:12.000Z</time>
      </trkpt>
      <trkpt lat="49.96212" lon="1.3934">
        <ele>42</ele>
        <time>2011-06-18T14:41:18.000Z</time>
      </trkpt>
      <trkpt lat="49.9621" lon="1.39304">
        <ele>43</ele>
        <time>2011-06-18T14:41:42.000Z</time>
      </trkpt>
      <trkpt lat="49.96208" lon="1.39295">
        <ele>43</ele>
        <time>2011-06-18T14:41:48.000Z</time>
      </trkpt>
      <trkpt lat="49.96207" lon="1.39287">
        <ele>42</ele>
        <time>2011-06-18T14:41:53.000Z</time>
      </trkpt>
      <trkpt lat="49.96196" lon="1.39218">
        <ele>43</ele>
        <time>2011-06-18T14:42:32.000Z</time>
      </trkpt>
      <trkpt lat="49.96195" lon="1.39217">
        <ele>43</ele>
        <time>2011-06-18T14:42:33.000Z</time>
      </trkpt>
      <trkpt lat="49.96192" lon="1.39204">
        <ele>45</ele>
        <time>2011-06-18T14:42:41.000Z</time>
      </trkpt>
      <trkpt lat="49.9619" lon="1.39194">
        <ele>46</ele>
        <time>2011-06-18T14:42:47.000Z</time>
      </trkpt>
      <trkpt lat="49.96187" lon="1.39184">
        <ele>46</ele>
        <time>2011-06-18T14:42:53.000Z</time>
      </trkpt>
      <trkpt lat="49.96175" lon="1.39151">
        <ele>46</ele>
        <time>2011-06-18T14:43:38.000Z</time>
      </trkpt>
      <trkpt lat="49.96169" lon="1.39128">
        <ele>52</ele>
        <time>2011-06-18T14:44:08.000Z</time>
      </trkpt>
      <trkpt lat="49.96166" lon="1.3912">
        <ele>53</ele>
        <time>2011-06-18T14:44:13.000Z</time>
      </trkpt>
      <trkpt lat="49.96146" lon="1.39057">
        <ele>48</ele>
        <time>2011-06-18T14:44:52.000Z</time>
      </trkpt>
      <trkpt lat="49.96146" lon="1.39056">
        <ele>48</ele>
        <time>2011-06-18T14:44:53.000Z</time>
      </trkpt>
      <trkpt lat="49.9613" lon="1.39012">
        <ele>51</ele>
        <time>2011-06-18T14:45:19.000Z</time>
      </trkpt>
      <trkpt lat="49.96106" lon="1.38957">
        <ele>54</ele>
        <time>2011-06-18T14:45:53.000Z</time>
      </trkpt>
      <trkpt lat="49.9609" lon="1.38903">
        <ele>49</ele>
        <time>2011-06-18T14:46:23.000Z</time>
      </trkpt>
      <trkpt lat="49.96068" lon="1.3884">
        <ele>74</ele>
        <time>2011-06-18T14:47:00.000Z</time>
      </trkpt>
      <trkpt lat="49.96067" lon="1.38839">
        <ele>74</ele>
        <time>2011-06-18T14:47:01.000Z</time>
      </trkpt>
      <trkpt lat="49.96056" lon="1.38809">
        <ele>60</ele>
        <time>2011-06-18T14:47:21.000Z</time>
      </trkpt>
      <trkpt lat="49.96039" lon="1.38763">
        <ele>64</ele>
        <time>2011-06-18T14:47:51.000Z</time>
      </trkpt>
      <trkpt lat="49.96038" lon="1.38753">
        <ele>65</ele>
        <time>2011-06-18T14:47:57.000Z</time>
      </trkpt>
      <trkpt lat="49.96033" lon="1.38734">
        <ele>66</ele>
        <time>2011-06-18T14:48:09.000Z</time>
      </trkpt>
      <trkpt lat="49.96027" lon="1.38727">
        <ele>65</ele>
        <time>2011-06-18T14:48:15.000Z</time>
      </trkpt>
      <trkpt lat="49.96002" lon="1.38677">
        <ele>60</ele>
        <time>2011-06-18T14:48:49.000Z</time>
      </trkpt>
      <trkpt lat="49.95992" lon="1.38654">
        <ele>58</ele>
        <time>2011-06-18T14:49:04.000Z</time>
      </trkpt>
      <trkpt lat="49.95987" lon="1.38647">
        <ele>59</ele>
        <time>2011-06-18T14:49:09.000Z</time>
      </trkpt>
      <trkpt lat="49.95978" lon="1.3863">
        <ele>65</ele>
        <time>2011-06-18T14:49:20.000Z</time>
      </trkpt>
      <trkpt lat="49.95971" lon="1.38619">
        <ele>70</ele>
        <time>2011-06-18T14:49:27.000Z</time>
      </trkpt>
      <trkpt lat="49.9596" lon="1.38598">
        <ele>78</ele>
        <time>2011-06-18T14:49:43.000Z</time>
      </trkpt>
      <trkpt lat="49.95959" lon="1.38591">
        <ele>82</ele>
        <time>2011-06-18T14:49:51.000Z</time>
      </trkpt>
      <trkpt lat="49.95952" lon="1.38579">
        <ele>82</ele>
        <time>2011-06-18T14:50:01.000Z</time>
      </trkpt>
      <trkpt lat="49.95943" lon="1.38565">
        <ele>78</ele>
        <time>2011-06-18T14:50:11.000Z</time>
      </trkpt>
      <trkpt lat="49.95928" lon="1.38545">
        <ele>74</ele>
        <time>2011-06-18T14:50:25.000Z</time>
      </trkpt>
      <trkpt lat="49.95923" lon="1.38541">
        <ele>75</ele>
        <time>2011-06-18T14:50:29.000Z</time>
      </trkpt>
      <trkpt lat="49.95908" lon="1.38529">
        <ele>84</ele>
        <time>2011-06-18T14:50:43.000Z</time>
      </trkpt>
      <trkpt lat="49.959" lon="1.38517">
        <ele>91</ele>
        <time>2011-06-18T14:50:52.000Z</time>
      </trkpt>
      <trkpt lat="49.9589" lon="1.38504">
        <ele>96</ele>
        <time>2011-06-18T14:51:02.000Z</time>
      </trkpt>
      <trkpt lat="49.95867" lon="1.38485">
        <ele>102</ele>
        <time>2011-06-18T14:51:23.000Z</time>
      </trkpt>
      <trkpt lat="49.9586" lon="1.3848">
        <ele>106</ele>
        <time>2011-06-18T14:51:29.000Z</time>
      </trkpt>
      <trkpt lat="49.9585" lon="1.38469">
        <ele>108</ele>
        <time>2011-06-18T14:51:42.000Z</time>
      </trkpt>
      <trkpt lat="49.95845" lon="1.38464">
        <ele>109</ele>
        <time>2011-06-18T14:51:48.000Z</time>
      </trkpt>
      <trkpt lat="49.95829" lon="1.3845">
        <ele>105</ele>
        <time>2011-06-18T14:52:05.000Z</time>
      </trkpt>
      <trkpt lat="49.95821" lon="1.38442">
        <ele>104</ele>
        <time>2011-06-18T14:52:14.000Z</time>
      </trkpt>
      <trkpt lat="49.95812" lon="1.38434">
        <ele>101</ele>
        <time>2011-06-18T14:52:24.000Z</time>
      </trkpt>
      <trkpt lat="49.95806" lon="1.38425">
        <ele>99</ele>
        <time>2011-06-18T14:52:31.000Z</time>
      </trkpt>
      <trkpt lat="49.95802" lon="1.38416">
        <ele>103</ele>
        <time>2011-06-18T14:52:37.000Z</time>
      </trkpt>
      <trkpt lat="49.95799" lon="1.38409">
        <ele>107</ele>
        <time>2011-06-18T14:52:42.000Z</time>
      </trkpt>
      <trkpt lat="49.95792" lon="1.38402">
        <ele>111</ele>
        <time>2011-06-18T14:52:49.000Z</time>
      </trkpt>
      <trkpt lat="49.95784" lon="1.38396">
        <ele>115</ele>
        <time>2011-06-18T14:52:54.000Z</time>
      </trkpt>
      <trkpt lat="49.95776" lon="1.38386">
        <ele>120</ele>
        <time>2011-06-18T14:53:03.000Z</time>
      </trkpt>
      <trkpt lat="49.95772" lon="1.38376">
        <ele>134</ele>
        <time>2011-06-18T14:53:13.000Z</time>
      </trkpt>
      <trkpt lat="49.9577" lon="1.38368">
        <ele>138</ele>
        <time>2011-06-18T14:53:17.000Z</time>
      </trkpt>
      <trkpt lat="49.95759" lon="1.3835">
        <ele>129</ele>
        <time>2011-06-18T14:53:28.000Z</time>
      </trkpt>
      <trkpt lat="49.95754" lon="1.3834">
        <ele>124</ele>
        <time>2011-06-18T14:53:35.000Z</time>
      </trkpt>
      <trkpt lat="49.95749" lon="1.38325">
        <ele>122</ele>
        <time>2011-06-18T14:53:44.000Z</time>
      </trkpt>
      <trkpt lat="49.95744" lon="1.38314">
        <ele>123</ele>
        <time>2011-06-18T14:53:50.000Z</time>
      </trkpt>
      <trkpt lat="49.95736" lon="1.38298">
        <ele>127</ele>
        <time>2011-06-18T14:53:58.000Z</time>
      </trkpt>
      <trkpt lat="49.95733" lon="1.38288">
        <ele>130</ele>
        <time>2011-06-18T14:54:04.000Z</time>
      </trkpt>
      <trkpt lat="49.95731" lon="1.3828">
        <ele>132</ele>
        <time>2011-06-18T14:54:08.000Z</time>
      </trkpt>
      <trkpt lat="49.95728" lon="1.38263">
        <ele>134</ele>
        <time>2011-06-18T14:54:17.000Z</time>
      </trkpt>
      <trkpt lat="49.95728" lon="1.3825">
        <ele>128</ele>
        <time>2011-06-18T14:54:26.000Z</time>
      </trkpt>
      <trkpt lat="49.95725" lon="1.38241">
        <ele>129</ele>
        <time>2011-06-18T14:54:32.000Z</time>
      </trkpt>
      <trkpt lat="49.95723" lon="1.38232">
        <ele>130</ele>
        <time>2011-06-18T14:54:38.000Z</time>
      </trkpt>
      <trkpt lat="49.95722" lon="1.38223">
        <ele>129</ele>
        <time>2011-06-18T14:54:45.000Z</time>
      </trkpt>
      <trkpt lat="49.9572" lon="1.38213">
        <ele>130</ele>
        <time>2011-06-18T14:54:51.000Z</time>
      </trkpt>
      <trkpt lat="49.95714" lon="1.38198">
        <ele>129</ele>
        <time>2011-06-18T14:55:02.000Z</time>
      </trkpt>
      <trkpt lat="49.95712" lon="1.38186">
        <ele>127</ele>
        <time>2011-06-18T14:55:09.000Z</time>
      </trkpt>
      <trkpt lat="49.95711" lon="1.38176">
        <ele>129</ele>
        <time>2011-06-18T14:55:15.000Z</time>
      </trkpt>
      <trkpt lat="49.95712" lon="1.38167">
        <ele>135</ele>
        <time>2011-06-18T14:55:25.000Z</time>
      </trkpt>
      <trkpt lat="49.9571" lon="1.3816">
        <ele>139</ele>
        <time>2011-06-18T14:55:30.000Z</time>
      </trkpt>
      <trkpt lat="49.9571" lon="1.38151">
        <ele>135</ele>
        <time>2011-06-18T14:55:36.000Z</time>
      </trkpt>
      <trkpt lat="49.95708" lon="1.38144">
        <ele>132</ele>
        <time>2011-06-18T14:55:42.000Z</time>
      </trkpt>
      <trkpt lat="49.95705" lon="1.38136">
        <ele>131</ele>
        <time>2011-06-18T14:55:47.000Z</time>
      </trkpt>
      <trkpt lat="49.95694" lon="1.38112">
        <ele>138</ele>
        <time>2011-06-18T14:56:03.000Z</time>
      </trkpt>
      <trkpt lat="49.9569" lon="1.38106">
        <ele>139</ele>
        <time>2011-06-18T14:56:08.000Z</time>
      </trkpt>
      <trkpt lat="49.9568" lon="1.38086">
        <ele>135</ele>
        <time>2011-06-18T14:56:21.000Z</time>
      </trkpt>
      <trkpt lat="49.95677" lon="1.38073">
        <ele>131</ele>
        <time>2011-06-18T14:56:31.000Z</time>
      </trkpt>
      <trkpt lat="49.95675" lon="1.38065">
        <ele>126</ele>
        <time>2011-06-18T14:56:39.000Z</time>
      </trkpt>
      <trkpt lat="49.95672" lon="1.38058">
        <ele>126</ele>
        <time>2011-06-18T14:56:44.000Z</time>
      </trkpt>
      <trkpt lat="49.9567" lon="1.38051">
        <ele>128</ele>
        <time>2011-06-18T14:56:50.000Z</time>
      </trkpt>
      <trkpt lat="49.95658" lon="1.38041">
        <ele>133</ele>
        <time>2011-06-18T14:57:01.000Z</time>
      </trkpt>
      <trkpt lat="49.95643" lon="1.3802">
        <ele>131</ele>
        <time>2011-06-18T14:57:17.000Z</time>
      </trkpt>
      <trkpt lat="49.95636" lon="1.38002">
        <ele>122</ele>
        <time>2011-06-18T14:57:36.000Z</time>
      </trkpt>
      <trkpt lat="49.95639" lon="1.38004">
        <ele>119</ele>
        <time>2011-06-18T14:57:51.000Z</time>
      </trkpt>
      <trkpt lat="49.95633" lon="1.37998">
        <ele>118</ele>
        <time>2011-06-18T14:57:56.000Z</time>
      </trkpt>
      <trkpt lat="49.95618" lon="1.37981">
        <ele>120</ele>
        <time>2011-06-18T14:58:10.000Z</time>
      </trkpt>
      <trkpt lat="49.95612" lon="1.3797">
        <ele>129</ele>
        <time>2011-06-18T14:58:18.000Z</time>
      </trkpt>
      <trkpt lat="49.95593" lon="1.37931">
        <ele>135</ele>
        <time>2011-06-18T14:58:49.000Z</time>
      </trkpt>
      <trkpt lat="49.95586" lon="1.37921">
        <ele>132</ele>
        <time>2011-06-18T14:58:58.000Z</time>
      </trkpt>
      <trkpt lat="49.9558" lon="1.37909">
        <ele>130</ele>
        <time>2011-06-18T14:59:07.000Z</time>
      </trkpt>
      <trkpt lat="49.95584" lon="1.37903">
        <ele>130</ele>
        <time>2011-06-18T14:59:13.000Z</time>
      </trkpt>
      <trkpt lat="49.95592" lon="1.37905">
        <ele>134</ele>
        <time>2011-06-18T14:59:20.000Z</time>
      </trkpt>
      <trkpt lat="49.95629" lon="1.37922">
        <ele>146</ele>
        <time>2011-06-18T14:59:50.000Z</time>
      </trkpt>
      <trkpt lat="49.95674" lon="1.37922">
        <ele>142</ele>
        <time>2011-06-18T15:00:32.000Z</time>
      </trkpt>
      <trkpt lat="49.95675" lon="1.37923">
        <ele>142</ele>
        <time>2011-06-18T15:00:33.000Z</time>
      </trkpt>
      <trkpt lat="49.95676" lon="1.37924">
        <ele>142</ele>
        <time>2011-06-18T15:00:34.000Z</time>
      </trkpt>
      <trkpt lat="49.95704" lon="1.37925">
        <ele>141</ele>
        <time>2011-06-18T15:00:58.000Z</time>
      </trkpt>
      <trkpt lat="49.95736" lon="1.37922">
        <ele>138</ele>
        <time>2011-06-18T15:01:30.000Z</time>
      </trkpt>
      <trkpt lat="49.95782" lon="1.37927">
        <ele>138</ele>
        <time>2011-06-18T15:02:10.000Z</time>
      </trkpt>
      <trkpt lat="49.95783" lon="1.37927">
        <ele>139</ele>
        <time>2011-06-18T15:02:11.000Z</time>
      </trkpt>
      <trkpt lat="49.958" lon="1.3793">
        <ele>139</ele>
        <time>2011-06-18T15:02:26.000Z</time>
      </trkpt>
      <trkpt lat="49.95843" lon="1.37951">
        <ele>138</ele>
        <time>2011-06-18T15:03:07.000Z</time>
      </trkpt>
      <trkpt lat="49.95844" lon="1.37951">
        <ele>138</ele>
        <time>2011-06-18T15:03:08.000Z</time>
      </trkpt>
      <trkpt lat="49.95876" lon="1.37968">
        <ele>133</ele>
        <time>2011-06-18T15:03:43.000Z</time>
      </trkpt>
      <trkpt lat="49.95906" lon="1.37989">
        <ele>138</ele>
        <time>2011-06-18T15:04:28.000Z</time>
      </trkpt>
      <trkpt lat="49.95911" lon="1.37992">
        <ele>131</ele>
        <time>2011-06-18T15:04:50.000Z</time>
      </trkpt>
      <trkpt lat="49.95918" lon="1.37991">
        <ele>127</ele>
        <time>2011-06-18T15:05:25.000Z</time>
      </trkpt>
      <trkpt lat="49.95913" lon="1.37985">
        <ele>126</ele>
        <time>2011-06-18T15:06:39.000Z</time>
      </trkpt>
      <trkpt lat="49.95918" lon="1.37978">
        <ele>125</ele>
        <time>2011-06-18T15:06:45.000Z</time>
      </trkpt>
      <trkpt lat="49.95922" lon="1.37975">
        <ele>124</ele>
        <time>2011-06-18T15:06:50.000Z</time>
      </trkpt>
      <trkpt lat="49.95935" lon="1.37972">
        <ele>121</ele>
        <time>2011-06-18T15:07:08.000Z</time>
      </trkpt>
      <trkpt lat="49.95943" lon="1.37973">
        <ele>123</ele>
        <time>2011-06-18T15:07:20.000Z</time>
      </trkpt>
      <trkpt lat="49.95966" lon="1.37979">
        <ele>134</ele>
        <time>2011-06-18T15:07:42.000Z</time>
      </trkpt>
      <trkpt lat="49.96012" lon="1.37987">
        <ele>126</ele>
        <time>2011-06-18T15:08:21.000Z</time>
      </trkpt>
      <trkpt lat="49.96013" lon="1.37988">
        <ele>126</ele>
        <time>2011-06-18T15:08:22.000Z</time>
      </trkpt>
      <trkpt lat="49.96022" lon="1.37991">
        <ele>127</ele>
        <time>2011-06-18T15:08:30.000Z</time>
      </trkpt>
      <trkpt lat="49.96038" lon="1.38002">
        <ele>133</ele>
        <time>2011-06-18T15:08:46.000Z</time>
      </trkpt>
      <trkpt lat="49.96049" lon="1.38014">
        <ele>140</ele>
        <time>2011-06-18T15:08:59.000Z</time>
      </trkpt>
      <trkpt lat="49.9606" lon="1.38026">
        <ele>139</ele>
        <time>2011-06-18T15:09:17.000Z</time>
      </trkpt>
      <trkpt lat="49.96069" lon="1.38035">
        <ele>139</ele>
        <time>2011-06-18T15:09:29.000Z</time>
      </trkpt>
      <trkpt lat="49.96094" lon="1.38055">
        <ele>139</ele>
        <time>2011-06-18T15:09:52.000Z</time>
      </trkpt>
      <trkpt lat="49.96133" lon="1.3809">
        <ele>139</ele>
        <time>2011-06-18T15:10:28.000Z</time>
      </trkpt>
      <trkpt lat="49.96134" lon="1.3809">
        <ele>139</ele>
        <time>2011-06-18T15:10:29.000Z</time>
      </trkpt>
      <trkpt lat="49.9614" lon="1.38098">
        <ele>136</ele>
        <time>2011-06-18T15:10:34.000Z</time>
      </trkpt>
      <trkpt lat="49.96152" lon="1.38108">
        <ele>131</ele>
        <time>2011-06-18T15:10:45.000Z</time>
      </trkpt>
      <trkpt lat="49.96172" lon="1.38126">
        <ele>128</ele>
        <time>2011-06-18T15:11:06.000Z</time>
      </trkpt>
      <trkpt lat="49.9618" lon="1.38126">
        <ele>125</ele>
        <time>2011-06-18T15:11:12.000Z</time>
      </trkpt>
      <trkpt lat="49.96191" lon="1.38121">
        <ele>129</ele>
        <time>2011-06-18T15:11:29.000Z</time>
      </trkpt>
      <trkpt lat="49.96201" lon="1.38108">
        <ele>140</ele>
        <time>2011-06-18T15:11:44.000Z</time>
      </trkpt>
      <trkpt lat="49.96204" lon="1.381">
        <ele>134</ele>
        <time>2011-06-18T15:11:52.000Z</time>
      </trkpt>
      <trkpt lat="49.96212" lon="1.3808">
        <ele>143</ele>
        <time>2011-06-18T15:12:09.000Z</time>
      </trkpt>
      <trkpt lat="49.96218" lon="1.38074">
        <ele>143</ele>
        <time>2011-06-18T15:12:14.000Z</time>
      </trkpt>
      <trkpt lat="49.9623" lon="1.38061">
        <ele>140</ele>
        <time>2011-06-18T15:12:29.000Z</time>
      </trkpt>
      <trkpt lat="49.9624" lon="1.38044">
        <ele>139</ele>
        <time>2011-06-18T15:12:40.000Z</time>
      </trkpt>
      <trkpt lat="49.96267" lon="1.37988">
        <ele>138</ele>
        <time>2011-06-18T15:13:21.000Z</time>
      </trkpt>
      <trkpt lat="49.96268" lon="1.37987">
        <ele>138</ele>
        <time>2011-06-18T15:13:22.000Z</time>
      </trkpt>
      <trkpt lat="49.96275" lon="1.3797">
        <ele>139</ele>
        <time>2011-06-18T15:13:36.000Z</time>
      </trkpt>
      <trkpt lat="49.96281" lon="1.37939">
        <ele>139</ele>
        <time>2011-06-18T15:13:57.000Z</time>
      </trkpt>
      <trkpt lat="49.9628" lon="1.37921">
        <ele>137</ele>
        <time>2011-06-18T15:14:09.000Z</time>
      </trkpt>
      <trkpt lat="49.96286" lon="1.37892">
        <ele>138</ele>
        <time>2011-06-18T15:14:26.000Z</time>
      </trkpt>
      <trkpt lat="49.96289" lon="1.37886">
        <ele>136</ele>
        <time>2011-06-18T15:14:30.000Z</time>
      </trkpt>
      <trkpt lat="49.96293" lon="1.37872">
        <ele>131</ele>
        <time>2011-06-18T15:14:39.000Z</time>
      </trkpt>
      <trkpt lat="49.96299" lon="1.37865">
        <ele>129</ele>
        <time>2011-06-18T15:14:47.000Z</time>
      </trkpt>
      <trkpt lat="49.96306" lon="1.37861">
        <ele>123</ele>
        <time>2011-06-18T15:14:55.000Z</time>
      </trkpt>
      <trkpt lat="49.96312" lon="1.37862">
        <ele>120</ele>
        <time>2011-06-18T15:15:02.000Z</time>
      </trkpt>
      <trkpt lat="49.96319" lon="1.37866">
        <ele>119</ele>
        <time>2011-06-18T15:15:14.000Z</time>
      </trkpt>
      <trkpt lat="49.96339" lon="1.3786">
        <ele>122</ele>
        <time>2011-06-18T15:15:33.000Z</time>
      </trkpt>
      <trkpt lat="49.96344" lon="1.37852">
        <ele>130</ele>
        <time>2011-06-18T15:15:41.000Z</time>
      </trkpt>
      <trkpt lat="49.96348" lon="1.37844">
        <ele>136</ele>
        <time>2011-06-18T15:15:47.000Z</time>
      </trkpt>
      <trkpt lat="49.96365" lon="1.37817">
        <ele>133</ele>
        <time>2011-06-18T15:16:06.000Z</time>
      </trkpt>
      <trkpt lat="49.96371" lon="1.37804">
        <ele>131</ele>
        <time>2011-06-18T15:16:18.000Z</time>
      </trkpt>
      <trkpt lat="49.96376" lon="1.37793">
        <ele>131</ele>
        <time>2011-06-18T15:16:25.000Z</time>
      </trkpt>
      <trkpt lat="49.964" lon="1.37758">
        <ele>129</ele>
        <time>2011-06-18T15:16:57.000Z</time>
      </trkpt>
      <trkpt lat="49.96411" lon="1.37734">
        <ele>131</ele>
        <time>2011-06-18T15:17:11.000Z</time>
      </trkpt>
      <trkpt lat="49.96413" lon="1.37726">
        <ele>131</ele>
        <time>2011-06-18T15:17:16.000Z</time>
      </trkpt>
      <trkpt lat="49.96434" lon="1.37689">
        <ele>125</ele>
        <time>2011-06-18T15:17:45.000Z</time>
      </trkpt>
      <trkpt lat="49.96457" lon="1.37663">
        <ele>115</ele>
        <time>2011-06-18T15:18:07.000Z</time>
      </trkpt>
      <trkpt lat="49.96461" lon="1.37649">
        <ele>120</ele>
        <time>2011-06-18T15:18:22.000Z</time>
      </trkpt>
      <trkpt lat="49.96464" lon="1.37641">
        <ele>124</ele>
        <time>2011-06-18T15:18:26.000Z</time>
      </trkpt>
      <trkpt lat="49.9647" lon="1.37631">
        <ele>128</ele>
        <time>2011-06-18T15:18:35.000Z</time>
      </trkpt>
      <trkpt lat="49.96474" lon="1.37616">
        <ele>132</ele>
        <time>2011-06-18T15:18:44.000Z</time>
      </trkpt>
      <trkpt lat="49.96479" lon="1.3761">
        <ele>132</ele>
        <time>2011-06-18T15:18:48.000Z</time>
      </trkpt>
      <trkpt lat="49.96484" lon="1.37602">
        <ele>132</ele>
        <time>2011-06-18T15:18:53.000Z</time>
      </trkpt>
      <trkpt lat="49.96504" lon="1.37574">
        <ele>124</ele>
        <time>2011-06-18T15:19:20.000Z</time>
      </trkpt>
      <trkpt lat="49.96508" lon="1.37565">
        <ele>126</ele>
        <time>2011-06-18T15:19:28.000Z</time>
      </trkpt>
      <trkpt lat="49.96514" lon="1.37566">
        <ele>118</ele>
        <time>2011-06-18T15:19:48.000Z</time>
      </trkpt>
      <trkpt lat="49.96522" lon="1.37567">
        <ele>109</ele>
        <time>2011-06-18T15:20:05.000Z</time>
      </trkpt>
      <trkpt lat="49.96527" lon="1.37566">
        <ele>108</ele>
        <time>2011-06-18T15:20:45.000Z</time>
      </trkpt>
      <trkpt lat="49.96533" lon="1.37567">
        <ele>104</ele>
        <time>2011-06-18T15:21:09.000Z</time>
      </trkpt>
      <trkpt lat="49.96546" lon="1.37564">
        <ele>117</ele>
        <time>2011-06-18T15:21:28.000Z</time>
      </trkpt>
      <trkpt lat="49.96558" lon="1.37556">
        <ele>113</ele>
        <time>2011-06-18T15:21:42.000Z</time>
      </trkpt>
      <trkpt lat="49.96568" lon="1.37553">
        <ele>117</ele>
        <time>2011-06-18T15:21:47.000Z</time>
      </trkpt>
      <trkpt lat="49.96584" lon="1.37547">
        <ele>124</ele>
        <time>2011-06-18T15:22:05.000Z</time>
      </trkpt>
      <trkpt lat="49.9659" lon="1.3754">
        <ele>120</ele>
        <time>2011-06-18T15:22:15.000Z</time>
      </trkpt>
      <trkpt lat="49.96614" lon="1.37524">
        <ele>122</ele>
        <time>2011-06-18T15:22:38.000Z</time>
      </trkpt>
      <trkpt lat="49.96644" lon="1.37525">
        <ele>108</ele>
        <time>2011-06-18T15:23:04.000Z</time>
      </trkpt>
      <trkpt lat="49.96664" lon="1.37533">
        <ele>103</ele>
        <time>2011-06-18T15:23:36.000Z</time>
      </trkpt>
      <trkpt lat="49.96674" lon="1.37538">
        <ele>117</ele>
        <time>2011-06-18T15:23:56.000Z</time>
      </trkpt>
      <trkpt lat="49.96681" lon="1.37537">
        <ele>113</ele>
        <time>2011-06-18T15:24:05.000Z</time>
      </trkpt>
      <trkpt lat="49.96687" lon="1.37538">
        <ele>111</ele>
        <time>2011-06-18T15:24:11.000Z</time>
      </trkpt>
      <trkpt lat="49.96687" lon="1.37541">
        <ele>109</ele>
        <time>2011-06-18T15:24:30.000Z</time>
      </trkpt>
      <trkpt lat="49.96698" lon="1.37546">
        <ele>102</ele>
        <time>2011-06-18T15:24:43.000Z</time>
      </trkpt>
      <trkpt lat="49.96728" lon="1.37566">
        <ele>107</ele>
        <time>2011-06-18T15:25:14.000Z</time>
      </trkpt>
      <trkpt lat="49.96736" lon="1.37578">
        <ele>112</ele>
        <time>2011-06-18T15:25:26.000Z</time>
      </trkpt>
      <trkpt lat="49.96743" lon="1.37585">
        <ele>109</ele>
        <time>2011-06-18T15:25:34.000Z</time>
      </trkpt>
      <trkpt lat="49.96755" lon="1.37591">
        <ele>97</ele>
        <time>2011-06-18T15:25:45.000Z</time>
      </trkpt>
      <trkpt lat="49.96768" lon="1.37596">
        <ele>97</ele>
        <time>2011-06-18T15:26:00.000Z</time>
      </trkpt>
      <trkpt lat="49.96771" lon="1.37603">
        <ele>102</ele>
        <time>2011-06-18T15:26:07.000Z</time>
      </trkpt>
      <trkpt lat="49.9677" lon="1.37612">
        <ele>105</ele>
        <time>2011-06-18T15:26:17.000Z</time>
      </trkpt>
      <trkpt lat="49.96778" lon="1.37611">
        <ele>91</ele>
        <time>2011-06-18T15:26:35.000Z</time>
      </trkpt>
      <trkpt lat="49.96788" lon="1.37604">
        <ele>86</ele>
        <time>2011-06-18T15:26:46.000Z</time>
      </trkpt>
      <trkpt lat="49.96832" lon="1.37584">
        <ele>87</ele>
        <time>2011-06-18T15:27:23.000Z</time>
      </trkpt>
      <trkpt lat="49.96833" lon="1.37583">
        <ele>86</ele>
        <time>2011-06-18T15:27:24.000Z</time>
      </trkpt>
      <trkpt lat="49.96843" lon="1.37579">
        <ele>79</ele>
        <time>2011-06-18T15:27:38.000Z</time>
      </trkpt>
      <trkpt lat="49.9685" lon="1.37579">
        <ele>80</ele>
        <time>2011-06-18T15:27:49.000Z</time>
      </trkpt>
      <trkpt lat="49.96858" lon="1.37574">
        <ele>76</ele>
        <time>2011-06-18T15:28:08.000Z</time>
      </trkpt>
      <trkpt lat="49.96869" lon="1.37568">
        <ele>75</ele>
        <time>2011-06-18T15:28:22.000Z</time>
      </trkpt>
      <trkpt lat="49.96874" lon="1.37568">
        <ele>77</ele>
        <time>2011-06-18T15:28:27.000Z</time>
      </trkpt>
      <trkpt lat="49.96883" lon="1.37567">
        <ele>79</ele>
        <time>2011-06-18T15:28:37.000Z</time>
      </trkpt>
      <trkpt lat="49.96896" lon="1.3756">
        <ele>76</ele>
        <time>2011-06-18T15:28:52.000Z</time>
      </trkpt>
      <trkpt lat="49.9691" lon="1.37564">
        <ele>87</ele>
        <time>2011-06-18T15:29:21.000Z</time>
      </trkpt>
      <trkpt lat="49.96894" lon="1.37558">
        <ele>68</ele>
        <time>2011-06-18T15:29:49.000Z</time>
      </trkpt>
      <trkpt lat="49.96899" lon="1.37557">
        <ele>65</ele>
        <time>2011-06-18T15:30:05.000Z</time>
      </trkpt>
      <trkpt lat="49.96901" lon="1.37565">
        <ele>69</ele>
        <time>2011-06-18T15:30:47.000Z</time>
      </trkpt>
      <trkpt lat="49.9691" lon="1.37563">
        <ele>74</ele>
        <time>2011-06-18T15:31:12.000Z</time>
      </trkpt>
      <trkpt lat="49.96898" lon="1.37558">
        <ele>70</ele>
        <time>2011-06-18T15:31:46.000Z</time>
      </trkpt>
      <trkpt lat="49.96896" lon="1.37552">
        <ele>76</ele>
        <time>2011-06-18T15:32:21.000Z</time>
      </trkpt>
      <trkpt lat="49.96894" lon="1.37549">
        <ele>75</ele>
        <time>2011-06-18T15:32:51.000Z</time>
      </trkpt>
      <trkpt lat="49.96909" lon="1.37553">
        <ele>84</ele>
        <time>2011-06-18T15:33:15.000Z</time>
      </trkpt>
      <trkpt lat="49.96919" lon="1.37547">
        <ele>74</ele>
        <time>2011-06-18T15:33:38.000Z</time>
      </trkpt>
      <trkpt lat="49.96923" lon="1.37545">
        <ele>74</ele>
        <time>2011-06-18T15:34:09.000Z</time>
      </trkpt>
      <trkpt lat="49.96938" lon="1.37531">
        <ele>73</ele>
        <time>2011-06-18T15:34:35.000Z</time>
      </trkpt>
      <trkpt lat="49.96952" lon="1.37518">
        <ele>66</ele>
        <time>2011-06-18T15:34:56.000Z</time>
      </trkpt>
      <trkpt lat="49.96971" lon="1.3751">
        <ele>63</ele>
        <time>2011-06-18T15:35:12.000Z</time>
      </trkpt>
      <trkpt lat="49.96981" lon="1.37502">
        <ele>60</ele>
        <time>2011-06-18T15:35:23.000Z</time>
      </trkpt>
      <trkpt lat="49.97025" lon="1.37487">
        <ele>62</ele>
        <time>2011-06-18T15:36:01.000Z</time>
      </trkpt>
      <trkpt lat="49.97026" lon="1.37486">
        <ele>62</ele>
        <time>2011-06-18T15:36:02.000Z</time>
      </trkpt>
      <trkpt lat="49.9707" lon="1.37467">
        <ele>60</ele>
        <time>2011-06-18T15:36:43.000Z</time>
      </trkpt>
      <trkpt lat="49.97071" lon="1.37467">
        <ele>59</ele>
        <time>2011-06-18T15:36:44.000Z</time>
      </trkpt>
      <trkpt lat="49.97077" lon="1.37462">
        <ele>55</ele>
        <time>2011-06-18T15:36:51.000Z</time>
      </trkpt>
      <trkpt lat="49.97121" lon="1.37446">
        <ele>59</ele>
        <time>2011-06-18T15:37:31.000Z</time>
      </trkpt>
      <trkpt lat="49.97122" lon="1.37446">
        <ele>59</ele>
        <time>2011-06-18T15:37:32.000Z</time>
      </trkpt>
      <trkpt lat="49.97127" lon="1.37442">
        <ele>59</ele>
        <time>2011-06-18T15:37:38.000Z</time>
      </trkpt>
      <trkpt lat="49.97142" lon="1.37432">
        <ele>59</ele>
        <time>2011-06-18T15:37:48.000Z</time>
      </trkpt>
      <trkpt lat="49.97174" lon="1.37409">
        <ele>49</ele>
        <time>2011-06-18T15:38:31.000Z</time>
      </trkpt>
      <trkpt lat="49.97195" lon="1.37399">
        <ele>53</ele>
        <time>2011-06-18T15:38:56.000Z</time>
      </trkpt>
      <trkpt lat="49.97229" lon="1.37376">
        <ele>52</ele>
        <time>2011-06-18T15:39:20.000Z</time>
      </trkpt>
      <trkpt lat="49.97263" lon="1.37351">
        <ele>48</ele>
        <time>2011-06-18T15:39:46.000Z</time>
      </trkpt>
      <trkpt lat="49.97268" lon="1.37346">
        <ele>47</ele>
        <time>2011-06-18T15:39:51.000Z</time>
      </trkpt>
      <trkpt lat="49.97297" lon="1.37317">
        <ele>43</ele>
        <time>2011-06-18T15:40:20.000Z</time>
      </trkpt>
      <trkpt lat="49.97305" lon="1.37307">
        <ele>39</ele>
        <time>2011-06-18T15:40:32.000Z</time>
      </trkpt>
      <trkpt lat="49.97318" lon="1.3729">
        <ele>35</ele>
        <time>2011-06-18T15:40:46.000Z</time>
      </trkpt>
      <trkpt lat="49.97343" lon="1.37272">
        <ele>41</ele>
        <time>2011-06-18T15:41:06.000Z</time>
      </trkpt>
      <trkpt lat="49.97377" lon="1.3725">
        <ele>44</ele>
        <time>2011-06-18T15:41:38.000Z</time>
      </trkpt>
      <trkpt lat="49.97393" lon="1.37244">
        <ele>42</ele>
        <time>2011-06-18T15:41:52.000Z</time>
      </trkpt>
      <trkpt lat="49.97414" lon="1.3722">
        <ele>42</ele>
        <time>2011-06-18T15:42:14.000Z</time>
      </trkpt>
      <trkpt lat="49.97427" lon="1.37203">
        <ele>42</ele>
        <time>2011-06-18T15:42:28.000Z</time>
      </trkpt>
      <trkpt lat="49.97464" lon="1.37159">
        <ele>39</ele>
        <time>2011-06-18T15:43:07.000Z</time>
      </trkpt>
      <trkpt lat="49.97465" lon="1.37158">
        <ele>38</ele>
        <time>2011-06-18T15:43:08.000Z</time>
      </trkpt>
      <trkpt lat="49.97467" lon="1.37155">
        <ele>38</ele>
        <time>2011-06-18T15:43:10.000Z</time>
      </trkpt>
      <trkpt lat="49.97494" lon="1.37121">
        <ele>38</ele>
        <time>2011-06-18T15:43:40.000Z</time>
      </trkpt>
      <trkpt lat="49.97507" lon="1.37108">
        <ele>43</ele>
        <time>2011-06-18T15:43:54.000Z</time>
      </trkpt>
      <trkpt lat="49.97512" lon="1.37107">
        <ele>45</ele>
        <time>2011-06-18T15:43:58.000Z</time>
      </trkpt>
      <trkpt lat="49.97517" lon="1.37111">
        <ele>45</ele>
        <time>2011-06-18T15:44:04.000Z</time>
      </trkpt>
      <trkpt lat="49.97519" lon="1.37112">
        <ele>41</ele>
        <time>2011-06-18T15:44:29.000Z</time>
      </trkpt>
      <trkpt lat="49.97519" lon="1.37134">
        <ele>40</ele>
        <time>2011-06-18T15:44:50.000Z</time>
      </trkpt>
      <trkpt lat="49.97519" lon="1.37147">
        <ele>40</ele>
        <time>2011-06-18T15:44:59.000Z</time>
      </trkpt>
      <trkpt lat="49.97525" lon="1.37173">
        <ele>41</ele>
        <time>2011-06-18T15:45:16.000Z</time>
      </trkpt>
      <trkpt lat="49.97533" lon="1.37191">
        <ele>42</ele>
        <time>2011-06-18T15:45:27.000Z</time>
      </trkpt>
      <trkpt lat="49.97554" lon="1.37224">
        <ele>40</ele>
        <time>2011-06-18T15:45:54.000Z</time>
      </trkpt>
      <trkpt lat="49.97558" lon="1.3723">
        <ele>39</ele>
        <time>2011-06-18T15:46:00.000Z</time>
      </trkpt>
      <trkpt lat="49.97564" lon="1.37229">
        <ele>37</ele>
        <time>2011-06-18T15:46:06.000Z</time>
      </trkpt>
      <trkpt lat="49.97581" lon="1.37216">
        <ele>30</ele>
        <time>2011-06-18T15:46:26.000Z</time>
      </trkpt>
      <trkpt lat="49.97596" lon="1.37208">
        <ele>27</ele>
        <time>2011-06-18T15:46:40.000Z</time>
      </trkpt>
      <trkpt lat="49.976" lon="1.37206">
        <ele>29</ele>
        <time>2011-06-18T15:46:51.000Z</time>
      </trkpt>
      <trkpt lat="49.97606" lon="1.37201">
        <ele>29</ele>
        <time>2011-06-18T15:46:57.000Z</time>
      </trkpt>
      <trkpt lat="49.97648" lon="1.37178">
        <ele>29</ele>
        <time>2011-06-18T15:47:30.000Z</time>
      </trkpt>
      <trkpt lat="49.97649" lon="1.37177">
        <ele>29</ele>
        <time>2011-06-18T15:47:31.000Z</time>
      </trkpt>
      <trkpt lat="49.97686" lon="1.37151">
        <ele>27</ele>
        <time>2011-06-18T15:48:03.000Z</time>
      </trkpt>
      <trkpt lat="49.97719" lon="1.37119">
        <ele>26</ele>
        <time>2011-06-18T15:48:35.000Z</time>
      </trkpt>
      <trkpt lat="49.97729" lon="1.37111">
        <ele>28</ele>
        <time>2011-06-18T15:48:43.000Z</time>
      </trkpt>
      <trkpt lat="49.97765" lon="1.37078">
        <ele>28</ele>
        <time>2011-06-18T15:49:16.000Z</time>
      </trkpt>
      <trkpt lat="49.97773" lon="1.37065">
        <ele>32</ele>
        <time>2011-06-18T15:49:28.000Z</time>
      </trkpt>
      <trkpt lat="49.97779" lon="1.3705">
        <ele>36</ele>
        <time>2011-06-18T15:49:41.000Z</time>
      </trkpt>
      <trkpt lat="49.97796" lon="1.3703">
        <ele>36</ele>
        <time>2011-06-18T15:50:00.000Z</time>
      </trkpt>
      <trkpt lat="49.97802" lon="1.37022">
        <ele>34</ele>
        <time>2011-06-18T15:50:07.000Z</time>
      </trkpt>
      <trkpt lat="49.97802" lon="1.37009">
        <ele>35</ele>
        <time>2011-06-18T15:50:16.000Z</time>
      </trkpt>
      <trkpt lat="49.97802" lon="1.37">
        <ele>36</ele>
        <time>2011-06-18T15:50:26.000Z</time>
      </trkpt>
      <trkpt lat="49.97798" lon="1.36994">
        <ele>31</ele>
        <time>2011-06-18T15:51:55.000Z</time>
      </trkpt>
    </trkseg>
  </trk>
</gpx>